<?xml version="1.0" encoding="UTF-8" standalone="no" ?>
<gpx xmlns="http://www.topografix.com/GPX/1/1" xmlns:xsi="http://www.w3.org/2001/XMLSchema-instance" xsi:schemaLocation="http://www.topografix.com/GPX/1/1 http://www.topografix.com/GPX/1/1/gpx.xsd" version="1.1" creator="VisuGPX - https://www.visugpx.com">
  <metadata>
    <name>Sortie after taf 5/10</name>
    <desc><![CDATA[Petite sortie pour faire tourner les jambes. Gros rythme]]></desc>
  </metadata>
  <trk>
    <name><![CDATA[Sortie after taf 5/10_1]]></name>
    <trkseg>
      <trkpt lat="43.62466" lon="7.05902">
        <ele>164</ele>
        <time>2011-10-05T15:44:00Z</time>
      </trkpt>
      <trkpt lat="43.62492" lon="7.05896">
        <ele>163</ele>
        <time>2011-10-05T15:44:14Z</time>
      </trkpt>
      <trkpt lat="43.62503" lon="7.0589">
        <ele>163</ele>
        <time>2011-10-05T15:44:19Z</time>
      </trkpt>
      <trkpt lat="43.62513" lon="7.05885">
        <ele>163</ele>
        <time>2011-10-05T15:44:24Z</time>
      </trkpt>
      <trkpt lat="43.62524" lon="7.05877">
        <ele>163</ele>
        <time>2011-10-05T15:44:29Z</time>
      </trkpt>
      <trkpt lat="43.62534" lon="7.05871">
        <ele>163</ele>
        <time>2011-10-05T15:44:34Z</time>
      </trkpt>
      <trkpt lat="43.62545" lon="7.05864">
        <ele>163</ele>
        <time>2011-10-05T15:44:39Z</time>
      </trkpt>
      <trkpt lat="43.62556" lon="7.05858">
        <ele>163</ele>
        <time>2011-10-05T15:44:44Z</time>
      </trkpt>
      <trkpt lat="43.62566" lon="7.05847">
        <ele>163</ele>
        <time>2011-10-05T15:44:49Z</time>
      </trkpt>
      <trkpt lat="43.62578" lon="7.05835">
        <ele>163</ele>
        <time>2011-10-05T15:44:54Z</time>
      </trkpt>
      <trkpt lat="43.6259" lon="7.05828">
        <ele>163</ele>
        <time>2011-10-05T15:44:59Z</time>
      </trkpt>
      <trkpt lat="43.62602" lon="7.0582">
        <ele>163</ele>
        <time>2011-10-05T15:45:04Z</time>
      </trkpt>
      <trkpt lat="43.6261" lon="7.05808">
        <ele>164</ele>
        <time>2011-10-05T15:45:09Z</time>
      </trkpt>
      <trkpt lat="43.62619" lon="7.05796">
        <ele>164</ele>
        <time>2011-10-05T15:45:14Z</time>
      </trkpt>
      <trkpt lat="43.62629" lon="7.05787">
        <ele>164</ele>
        <time>2011-10-05T15:45:19Z</time>
      </trkpt>
      <trkpt lat="43.62634" lon="7.05773">
        <ele>165</ele>
        <time>2011-10-05T15:45:24Z</time>
      </trkpt>
      <trkpt lat="43.62639" lon="7.05758">
        <ele>165</ele>
        <time>2011-10-05T15:45:29Z</time>
      </trkpt>
      <trkpt lat="43.62648" lon="7.05748">
        <ele>165</ele>
        <time>2011-10-05T15:45:34Z</time>
      </trkpt>
      <trkpt lat="43.62659" lon="7.05743">
        <ele>165</ele>
        <time>2011-10-05T15:45:39Z</time>
      </trkpt>
      <trkpt lat="43.6267" lon="7.05738">
        <ele>165</ele>
        <time>2011-10-05T15:45:44Z</time>
      </trkpt>
      <trkpt lat="43.6268" lon="7.05734">
        <ele>166</ele>
        <time>2011-10-05T15:45:49Z</time>
      </trkpt>
      <trkpt lat="43.6269" lon="7.05731">
        <ele>167</ele>
        <time>2011-10-05T15:45:54Z</time>
      </trkpt>
      <trkpt lat="43.62699" lon="7.05729">
        <ele>168</ele>
        <time>2011-10-05T15:45:59Z</time>
      </trkpt>
      <trkpt lat="43.62708" lon="7.05732">
        <ele>169</ele>
        <time>2011-10-05T15:46:04Z</time>
      </trkpt>
      <trkpt lat="43.62718" lon="7.05735">
        <ele>170</ele>
        <time>2011-10-05T15:46:09Z</time>
      </trkpt>
      <trkpt lat="43.62727" lon="7.05743">
        <ele>170</ele>
        <time>2011-10-05T15:46:14Z</time>
      </trkpt>
      <trkpt lat="43.62738" lon="7.05738">
        <ele>171</ele>
        <time>2011-10-05T15:46:19Z</time>
      </trkpt>
      <trkpt lat="43.62748" lon="7.0573">
        <ele>172</ele>
        <time>2011-10-05T15:46:24Z</time>
      </trkpt>
      <trkpt lat="43.62758" lon="7.05723">
        <ele>172</ele>
        <time>2011-10-05T15:46:29Z</time>
      </trkpt>
      <trkpt lat="43.62766" lon="7.05716">
        <ele>172</ele>
        <time>2011-10-05T15:46:35Z</time>
      </trkpt>
      <trkpt lat="43.62761" lon="7.0572">
        <ele>172</ele>
        <time>2011-10-05T15:46:40Z</time>
      </trkpt>
      <trkpt lat="43.62743" lon="7.05733">
        <ele>172</ele>
        <time>2011-10-05T15:46:45Z</time>
      </trkpt>
      <trkpt lat="43.62719" lon="7.05733">
        <ele>172</ele>
        <time>2011-10-05T15:46:50Z</time>
      </trkpt>
      <trkpt lat="43.6269" lon="7.05729">
        <ele>171</ele>
        <time>2011-10-05T15:46:55Z</time>
      </trkpt>
      <trkpt lat="43.62687" lon="7.05731">
        <ele>171</ele>
        <time>2011-10-05T15:47:04Z</time>
      </trkpt>
      <trkpt lat="43.62688" lon="7.05729">
        <ele>171</ele>
        <time>2011-10-05T15:47:13Z</time>
      </trkpt>
      <trkpt lat="43.62692" lon="7.05728">
        <ele>171</ele>
        <time>2011-10-05T15:47:18Z</time>
      </trkpt>
      <trkpt lat="43.62701" lon="7.05728">
        <ele>171</ele>
        <time>2011-10-05T15:47:23Z</time>
      </trkpt>
      <trkpt lat="43.62711" lon="7.0573">
        <ele>171</ele>
        <time>2011-10-05T15:47:28Z</time>
      </trkpt>
      <trkpt lat="43.6272" lon="7.05732">
        <ele>171</ele>
        <time>2011-10-05T15:47:33Z</time>
      </trkpt>
      <trkpt lat="43.62728" lon="7.05738">
        <ele>171</ele>
        <time>2011-10-05T15:47:38Z</time>
      </trkpt>
      <trkpt lat="43.62735" lon="7.05736">
        <ele>171</ele>
        <time>2011-10-05T15:47:44Z</time>
      </trkpt>
      <trkpt lat="43.62741" lon="7.05733">
        <ele>171</ele>
        <time>2011-10-05T15:47:49Z</time>
      </trkpt>
      <trkpt lat="43.62749" lon="7.05728">
        <ele>171</ele>
        <time>2011-10-05T15:47:54Z</time>
      </trkpt>
      <trkpt lat="43.62756" lon="7.05722">
        <ele>171</ele>
        <time>2011-10-05T15:47:59Z</time>
      </trkpt>
      <trkpt lat="43.62766" lon="7.05715">
        <ele>171</ele>
        <time>2011-10-05T15:48:04Z</time>
      </trkpt>
      <trkpt lat="43.62782" lon="7.05707">
        <ele>171</ele>
        <time>2011-10-05T15:48:09Z</time>
      </trkpt>
      <trkpt lat="43.62794" lon="7.05707">
        <ele>171</ele>
        <time>2011-10-05T15:48:14Z</time>
      </trkpt>
      <trkpt lat="43.62804" lon="7.05705">
        <ele>171</ele>
        <time>2011-10-05T15:48:19Z</time>
      </trkpt>
      <trkpt lat="43.6281" lon="7.05702">
        <ele>171</ele>
        <time>2011-10-05T15:48:24Z</time>
      </trkpt>
      <trkpt lat="43.62815" lon="7.057">
        <ele>171</ele>
        <time>2011-10-05T15:48:29Z</time>
      </trkpt>
      <trkpt lat="43.62822" lon="7.05699">
        <ele>171</ele>
        <time>2011-10-05T15:48:34Z</time>
      </trkpt>
      <trkpt lat="43.6283" lon="7.05695">
        <ele>172</ele>
        <time>2011-10-05T15:48:39Z</time>
      </trkpt>
      <trkpt lat="43.62835" lon="7.05697">
        <ele>172</ele>
        <time>2011-10-05T15:48:48Z</time>
      </trkpt>
      <trkpt lat="43.62841" lon="7.05705">
        <ele>173</ele>
        <time>2011-10-05T15:48:54Z</time>
      </trkpt>
      <trkpt lat="43.62849" lon="7.05708">
        <ele>173</ele>
        <time>2011-10-05T15:48:59Z</time>
      </trkpt>
      <trkpt lat="43.62861" lon="7.05703">
        <ele>173</ele>
        <time>2011-10-05T15:49:04Z</time>
      </trkpt>
      <trkpt lat="43.62869" lon="7.05697">
        <ele>173</ele>
        <time>2011-10-05T15:49:09Z</time>
      </trkpt>
      <trkpt lat="43.6287" lon="7.05696">
        <ele>173</ele>
        <time>2011-10-05T15:49:15Z</time>
      </trkpt>
      <trkpt lat="43.62874" lon="7.05696">
        <ele>174</ele>
        <time>2011-10-05T15:49:30Z</time>
      </trkpt>
      <trkpt lat="43.6288" lon="7.05701">
        <ele>175</ele>
        <time>2011-10-05T15:49:36Z</time>
      </trkpt>
      <trkpt lat="43.62881" lon="7.05704">
        <ele>176</ele>
        <time>2011-10-05T15:49:45Z</time>
      </trkpt>
      <trkpt lat="43.62881" lon="7.05703">
        <ele>177</ele>
        <time>2011-10-05T15:49:54Z</time>
      </trkpt>
      <trkpt lat="43.62876" lon="7.05696">
        <ele>177</ele>
        <time>2011-10-05T15:49:59Z</time>
      </trkpt>
      <trkpt lat="43.62877" lon="7.05689">
        <ele>177</ele>
        <time>2011-10-05T15:50:04Z</time>
      </trkpt>
      <trkpt lat="43.62879" lon="7.05684">
        <ele>177</ele>
        <time>2011-10-05T15:50:10Z</time>
      </trkpt>
      <trkpt lat="43.6288" lon="7.05678">
        <ele>177</ele>
        <time>2011-10-05T15:50:15Z</time>
      </trkpt>
      <trkpt lat="43.62879" lon="7.05671">
        <ele>177</ele>
        <time>2011-10-05T15:50:21Z</time>
      </trkpt>
      <trkpt lat="43.62881" lon="7.05664">
        <ele>177</ele>
        <time>2011-10-05T15:50:27Z</time>
      </trkpt>
      <trkpt lat="43.62886" lon="7.05655">
        <ele>177</ele>
        <time>2011-10-05T15:50:32Z</time>
      </trkpt>
      <trkpt lat="43.62891" lon="7.05644">
        <ele>177</ele>
        <time>2011-10-05T15:50:37Z</time>
      </trkpt>
      <trkpt lat="43.62893" lon="7.05632">
        <ele>177</ele>
        <time>2011-10-05T15:50:42Z</time>
      </trkpt>
      <trkpt lat="43.62896" lon="7.05621">
        <ele>177</ele>
        <time>2011-10-05T15:50:47Z</time>
      </trkpt>
      <trkpt lat="43.62899" lon="7.05612">
        <ele>177</ele>
        <time>2011-10-05T15:50:52Z</time>
      </trkpt>
      <trkpt lat="43.62901" lon="7.05601">
        <ele>177</ele>
        <time>2011-10-05T15:50:57Z</time>
      </trkpt>
      <trkpt lat="43.62904" lon="7.0559">
        <ele>178</ele>
        <time>2011-10-05T15:51:02Z</time>
      </trkpt>
      <trkpt lat="43.62905" lon="7.05579">
        <ele>179</ele>
        <time>2011-10-05T15:51:07Z</time>
      </trkpt>
      <trkpt lat="43.62907" lon="7.05566">
        <ele>180</ele>
        <time>2011-10-05T15:51:12Z</time>
      </trkpt>
      <trkpt lat="43.62908" lon="7.05554">
        <ele>180</ele>
        <time>2011-10-05T15:51:17Z</time>
      </trkpt>
      <trkpt lat="43.62908" lon="7.05542">
        <ele>180</ele>
        <time>2011-10-05T15:51:22Z</time>
      </trkpt>
      <trkpt lat="43.6291" lon="7.05527">
        <ele>180</ele>
        <time>2011-10-05T15:51:27Z</time>
      </trkpt>
      <trkpt lat="43.62916" lon="7.05516">
        <ele>180</ele>
        <time>2011-10-05T15:51:32Z</time>
      </trkpt>
      <trkpt lat="43.62925" lon="7.05508">
        <ele>180</ele>
        <time>2011-10-05T15:51:37Z</time>
      </trkpt>
      <trkpt lat="43.62933" lon="7.05499">
        <ele>180</ele>
        <time>2011-10-05T15:51:42Z</time>
      </trkpt>
      <trkpt lat="43.6294" lon="7.0549">
        <ele>180</ele>
        <time>2011-10-05T15:51:47Z</time>
      </trkpt>
      <trkpt lat="43.62946" lon="7.05479">
        <ele>180</ele>
        <time>2011-10-05T15:51:52Z</time>
      </trkpt>
      <trkpt lat="43.62953" lon="7.05468">
        <ele>180</ele>
        <time>2011-10-05T15:51:57Z</time>
      </trkpt>
      <trkpt lat="43.62957" lon="7.05454">
        <ele>180</ele>
        <time>2011-10-05T15:52:02Z</time>
      </trkpt>
      <trkpt lat="43.62963" lon="7.0544">
        <ele>179</ele>
        <time>2011-10-05T15:52:07Z</time>
      </trkpt>
      <trkpt lat="43.62968" lon="7.05424">
        <ele>179</ele>
        <time>2011-10-05T15:52:12Z</time>
      </trkpt>
      <trkpt lat="43.62972" lon="7.05409">
        <ele>179</ele>
        <time>2011-10-05T15:52:17Z</time>
      </trkpt>
      <trkpt lat="43.62975" lon="7.05396">
        <ele>179</ele>
        <time>2011-10-05T15:52:22Z</time>
      </trkpt>
      <trkpt lat="43.62979" lon="7.05382">
        <ele>179</ele>
        <time>2011-10-05T15:52:27Z</time>
      </trkpt>
      <trkpt lat="43.62983" lon="7.05368">
        <ele>179</ele>
        <time>2011-10-05T15:52:32Z</time>
      </trkpt>
      <trkpt lat="43.62988" lon="7.05356">
        <ele>179</ele>
        <time>2011-10-05T15:52:37Z</time>
      </trkpt>
      <trkpt lat="43.62993" lon="7.05345">
        <ele>179</ele>
        <time>2011-10-05T15:52:42Z</time>
      </trkpt>
      <trkpt lat="43.62997" lon="7.05337">
        <ele>179</ele>
        <time>2011-10-05T15:52:47Z</time>
      </trkpt>
      <trkpt lat="43.63002" lon="7.05328">
        <ele>179</ele>
        <time>2011-10-05T15:52:52Z</time>
      </trkpt>
      <trkpt lat="43.63007" lon="7.05318">
        <ele>179</ele>
        <time>2011-10-05T15:52:57Z</time>
      </trkpt>
      <trkpt lat="43.6301" lon="7.05306">
        <ele>179</ele>
        <time>2011-10-05T15:53:02Z</time>
      </trkpt>
      <trkpt lat="43.63013" lon="7.05296">
        <ele>179</ele>
        <time>2011-10-05T15:53:07Z</time>
      </trkpt>
      <trkpt lat="43.63015" lon="7.05284">
        <ele>179</ele>
        <time>2011-10-05T15:53:12Z</time>
      </trkpt>
      <trkpt lat="43.63018" lon="7.05274">
        <ele>180</ele>
        <time>2011-10-05T15:53:17Z</time>
      </trkpt>
      <trkpt lat="43.63017" lon="7.05263">
        <ele>180</ele>
        <time>2011-10-05T15:53:22Z</time>
      </trkpt>
      <trkpt lat="43.63014" lon="7.05253">
        <ele>181</ele>
        <time>2011-10-05T15:53:27Z</time>
      </trkpt>
      <trkpt lat="43.63011" lon="7.05241">
        <ele>182</ele>
        <time>2011-10-05T15:53:32Z</time>
      </trkpt>
      <trkpt lat="43.63007" lon="7.05229">
        <ele>182</ele>
        <time>2011-10-05T15:53:37Z</time>
      </trkpt>
      <trkpt lat="43.63003" lon="7.05216">
        <ele>182</ele>
        <time>2011-10-05T15:53:42Z</time>
      </trkpt>
      <trkpt lat="43.62999" lon="7.05203">
        <ele>183</ele>
        <time>2011-10-05T15:53:47Z</time>
      </trkpt>
      <trkpt lat="43.62993" lon="7.0519">
        <ele>183</ele>
        <time>2011-10-05T15:53:52Z</time>
      </trkpt>
      <trkpt lat="43.62986" lon="7.05169">
        <ele>183</ele>
        <time>2011-10-05T15:53:57Z</time>
      </trkpt>
      <trkpt lat="43.62984" lon="7.05139">
        <ele>183</ele>
        <time>2011-10-05T15:54:02Z</time>
      </trkpt>
      <trkpt lat="43.62988" lon="7.05111">
        <ele>182</ele>
        <time>2011-10-05T15:54:07Z</time>
      </trkpt>
      <trkpt lat="43.62994" lon="7.05085">
        <ele>182</ele>
        <time>2011-10-05T15:54:12Z</time>
      </trkpt>
      <trkpt lat="43.62997" lon="7.05064">
        <ele>182</ele>
        <time>2011-10-05T15:54:17Z</time>
      </trkpt>
      <trkpt lat="43.62994" lon="7.05039">
        <ele>182</ele>
        <time>2011-10-05T15:54:22Z</time>
      </trkpt>
      <trkpt lat="43.62998" lon="7.05019">
        <ele>181</ele>
        <time>2011-10-05T15:54:27Z</time>
      </trkpt>
      <trkpt lat="43.63004" lon="7.05004">
        <ele>180</ele>
        <time>2011-10-05T15:54:32Z</time>
      </trkpt>
      <trkpt lat="43.63008" lon="7.0499">
        <ele>179</ele>
        <time>2011-10-05T15:54:37Z</time>
      </trkpt>
      <trkpt lat="43.63013" lon="7.0497">
        <ele>178</ele>
        <time>2011-10-05T15:54:42Z</time>
      </trkpt>
      <trkpt lat="43.63018" lon="7.0495">
        <ele>177</ele>
        <time>2011-10-05T15:54:47Z</time>
      </trkpt>
      <trkpt lat="43.63026" lon="7.04932">
        <ele>176</ele>
        <time>2011-10-05T15:54:52Z</time>
      </trkpt>
      <trkpt lat="43.63034" lon="7.04917">
        <ele>175</ele>
        <time>2011-10-05T15:54:57Z</time>
      </trkpt>
      <trkpt lat="43.63042" lon="7.049">
        <ele>174</ele>
        <time>2011-10-05T15:55:02Z</time>
      </trkpt>
      <trkpt lat="43.63049" lon="7.04882">
        <ele>173</ele>
        <time>2011-10-05T15:55:07Z</time>
      </trkpt>
      <trkpt lat="43.63051" lon="7.04863">
        <ele>172</ele>
        <time>2011-10-05T15:55:12Z</time>
      </trkpt>
      <trkpt lat="43.63044" lon="7.04846">
        <ele>171</ele>
        <time>2011-10-05T15:55:17Z</time>
      </trkpt>
      <trkpt lat="43.63035" lon="7.04827">
        <ele>169</ele>
        <time>2011-10-05T15:55:22Z</time>
      </trkpt>
      <trkpt lat="43.63031" lon="7.04811">
        <ele>169</ele>
        <time>2011-10-05T15:55:27Z</time>
      </trkpt>
      <trkpt lat="43.6303" lon="7.04795">
        <ele>169</ele>
        <time>2011-10-05T15:55:32Z</time>
      </trkpt>
      <trkpt lat="43.63029" lon="7.04781">
        <ele>168</ele>
        <time>2011-10-05T15:55:37Z</time>
      </trkpt>
      <trkpt lat="43.63028" lon="7.04767">
        <ele>168</ele>
        <time>2011-10-05T15:55:42Z</time>
      </trkpt>
      <trkpt lat="43.63027" lon="7.04752">
        <ele>168</ele>
        <time>2011-10-05T15:55:47Z</time>
      </trkpt>
      <trkpt lat="43.63025" lon="7.04738">
        <ele>168</ele>
        <time>2011-10-05T15:55:52Z</time>
      </trkpt>
      <trkpt lat="43.63022" lon="7.04723">
        <ele>168</ele>
        <time>2011-10-05T15:55:57Z</time>
      </trkpt>
      <trkpt lat="43.6302" lon="7.04708">
        <ele>168</ele>
        <time>2011-10-05T15:56:02Z</time>
      </trkpt>
      <trkpt lat="43.63017" lon="7.04694">
        <ele>168</ele>
        <time>2011-10-05T15:56:07Z</time>
      </trkpt>
      <trkpt lat="43.63013" lon="7.0468">
        <ele>168</ele>
        <time>2011-10-05T15:56:12Z</time>
      </trkpt>
      <trkpt lat="43.63008" lon="7.04667">
        <ele>168</ele>
        <time>2011-10-05T15:56:17Z</time>
      </trkpt>
      <trkpt lat="43.63002" lon="7.04655">
        <ele>168</ele>
        <time>2011-10-05T15:56:22Z</time>
      </trkpt>
      <trkpt lat="43.62995" lon="7.04643">
        <ele>169</ele>
        <time>2011-10-05T15:56:27Z</time>
      </trkpt>
      <trkpt lat="43.62989" lon="7.04631">
        <ele>170</ele>
        <time>2011-10-05T15:56:32Z</time>
      </trkpt>
      <trkpt lat="43.62981" lon="7.04619">
        <ele>170</ele>
        <time>2011-10-05T15:56:37Z</time>
      </trkpt>
      <trkpt lat="43.62974" lon="7.04609">
        <ele>172</ele>
        <time>2011-10-05T15:56:42Z</time>
      </trkpt>
      <trkpt lat="43.62967" lon="7.04599">
        <ele>172</ele>
        <time>2011-10-05T15:56:47Z</time>
      </trkpt>
      <trkpt lat="43.62958" lon="7.0459">
        <ele>173</ele>
        <time>2011-10-05T15:56:52Z</time>
      </trkpt>
      <trkpt lat="43.62949" lon="7.04581">
        <ele>173</ele>
        <time>2011-10-05T15:56:57Z</time>
      </trkpt>
      <trkpt lat="43.62938" lon="7.04573">
        <ele>173</ele>
        <time>2011-10-05T15:57:02Z</time>
      </trkpt>
      <trkpt lat="43.62928" lon="7.04564">
        <ele>174</ele>
        <time>2011-10-05T15:57:07Z</time>
      </trkpt>
      <trkpt lat="43.62922" lon="7.04552">
        <ele>174</ele>
        <time>2011-10-05T15:57:12Z</time>
      </trkpt>
      <trkpt lat="43.62917" lon="7.04541">
        <ele>174</ele>
        <time>2011-10-05T15:57:17Z</time>
      </trkpt>
      <trkpt lat="43.62912" lon="7.04532">
        <ele>174</ele>
        <time>2011-10-05T15:57:23Z</time>
      </trkpt>
      <trkpt lat="43.62916" lon="7.04535">
        <ele>175</ele>
        <time>2011-10-05T15:57:28Z</time>
      </trkpt>
      <trkpt lat="43.62924" lon="7.04549">
        <ele>175</ele>
        <time>2011-10-05T15:57:33Z</time>
      </trkpt>
      <trkpt lat="43.62931" lon="7.04563">
        <ele>175</ele>
        <time>2011-10-05T15:57:38Z</time>
      </trkpt>
      <trkpt lat="43.62927" lon="7.04563">
        <ele>176</ele>
        <time>2011-10-05T15:57:43Z</time>
      </trkpt>
      <trkpt lat="43.6292" lon="7.04547">
        <ele>176</ele>
        <time>2011-10-05T15:57:48Z</time>
      </trkpt>
      <trkpt lat="43.62915" lon="7.04536">
        <ele>176</ele>
        <time>2011-10-05T15:57:53Z</time>
      </trkpt>
      <trkpt lat="43.62911" lon="7.04533">
        <ele>176</ele>
        <time>2011-10-05T15:57:58Z</time>
      </trkpt>
      <trkpt lat="43.62905" lon="7.04527">
        <ele>176</ele>
        <time>2011-10-05T15:58:03Z</time>
      </trkpt>
      <trkpt lat="43.62903" lon="7.04515">
        <ele>176</ele>
        <time>2011-10-05T15:58:08Z</time>
      </trkpt>
      <trkpt lat="43.62897" lon="7.04505">
        <ele>176</ele>
        <time>2011-10-05T15:58:13Z</time>
      </trkpt>
      <trkpt lat="43.62889" lon="7.04496">
        <ele>176</ele>
        <time>2011-10-05T15:58:18Z</time>
      </trkpt>
      <trkpt lat="43.62886" lon="7.04485">
        <ele>176</ele>
        <time>2011-10-05T15:58:23Z</time>
      </trkpt>
      <trkpt lat="43.62886" lon="7.04474">
        <ele>176</ele>
        <time>2011-10-05T15:58:28Z</time>
      </trkpt>
      <trkpt lat="43.62888" lon="7.0446">
        <ele>176</ele>
        <time>2011-10-05T15:58:33Z</time>
      </trkpt>
      <trkpt lat="43.62891" lon="7.04449">
        <ele>176</ele>
        <time>2011-10-05T15:58:38Z</time>
      </trkpt>
      <trkpt lat="43.62896" lon="7.04438">
        <ele>176</ele>
        <time>2011-10-05T15:58:43Z</time>
      </trkpt>
      <trkpt lat="43.62899" lon="7.04429">
        <ele>177</ele>
        <time>2011-10-05T15:58:48Z</time>
      </trkpt>
      <trkpt lat="43.629" lon="7.04421">
        <ele>177</ele>
        <time>2011-10-05T15:58:53Z</time>
      </trkpt>
      <trkpt lat="43.62905" lon="7.04412">
        <ele>178</ele>
        <time>2011-10-05T15:58:58Z</time>
      </trkpt>
      <trkpt lat="43.62907" lon="7.04402">
        <ele>179</ele>
        <time>2011-10-05T15:59:03Z</time>
      </trkpt>
      <trkpt lat="43.62911" lon="7.04394">
        <ele>180</ele>
        <time>2011-10-05T15:59:08Z</time>
      </trkpt>
      <trkpt lat="43.62913" lon="7.04392">
        <ele>181</ele>
        <time>2011-10-05T15:59:14Z</time>
      </trkpt>
      <trkpt lat="43.62917" lon="7.04387">
        <ele>182</ele>
        <time>2011-10-05T15:59:19Z</time>
      </trkpt>
      <trkpt lat="43.62922" lon="7.04382">
        <ele>183</ele>
        <time>2011-10-05T15:59:24Z</time>
      </trkpt>
      <trkpt lat="43.62927" lon="7.04385">
        <ele>183</ele>
        <time>2011-10-05T15:59:29Z</time>
      </trkpt>
      <trkpt lat="43.62934" lon="7.04388">
        <ele>183</ele>
        <time>2011-10-05T15:59:34Z</time>
      </trkpt>
      <trkpt lat="43.62943" lon="7.04389">
        <ele>183</ele>
        <time>2011-10-05T15:59:39Z</time>
      </trkpt>
      <trkpt lat="43.62951" lon="7.04391">
        <ele>184</ele>
        <time>2011-10-05T15:59:44Z</time>
      </trkpt>
      <trkpt lat="43.6296" lon="7.04389">
        <ele>185</ele>
        <time>2011-10-05T15:59:49Z</time>
      </trkpt>
      <trkpt lat="43.62968" lon="7.04386">
        <ele>185</ele>
        <time>2011-10-05T15:59:54Z</time>
      </trkpt>
      <trkpt lat="43.62979" lon="7.0438">
        <ele>185</ele>
        <time>2011-10-05T15:59:59Z</time>
      </trkpt>
      <trkpt lat="43.62989" lon="7.04377">
        <ele>186</ele>
        <time>2011-10-05T16:00:04Z</time>
      </trkpt>
      <trkpt lat="43.62999" lon="7.04375">
        <ele>187</ele>
        <time>2011-10-05T16:00:09Z</time>
      </trkpt>
      <trkpt lat="43.63009" lon="7.04372">
        <ele>188</ele>
        <time>2011-10-05T16:00:14Z</time>
      </trkpt>
      <trkpt lat="43.63018" lon="7.0437">
        <ele>188</ele>
        <time>2011-10-05T16:00:19Z</time>
      </trkpt>
      <trkpt lat="43.63026" lon="7.04367">
        <ele>189</ele>
        <time>2011-10-05T16:00:24Z</time>
      </trkpt>
      <trkpt lat="43.63031" lon="7.04364">
        <ele>190</ele>
        <time>2011-10-05T16:00:29Z</time>
      </trkpt>
      <trkpt lat="43.63036" lon="7.04362">
        <ele>191</ele>
        <time>2011-10-05T16:00:34Z</time>
      </trkpt>
      <trkpt lat="43.63041" lon="7.04362">
        <ele>192</ele>
        <time>2011-10-05T16:00:40Z</time>
      </trkpt>
      <trkpt lat="43.63048" lon="7.04362">
        <ele>192</ele>
        <time>2011-10-05T16:00:45Z</time>
      </trkpt>
      <trkpt lat="43.63064" lon="7.04364">
        <ele>192</ele>
        <time>2011-10-05T16:00:50Z</time>
      </trkpt>
      <trkpt lat="43.63073" lon="7.04361">
        <ele>192</ele>
        <time>2011-10-05T16:00:55Z</time>
      </trkpt>
      <trkpt lat="43.6308" lon="7.04361">
        <ele>192</ele>
        <time>2011-10-05T16:01:00Z</time>
      </trkpt>
      <trkpt lat="43.63085" lon="7.04359">
        <ele>192</ele>
        <time>2011-10-05T16:01:05Z</time>
      </trkpt>
      <trkpt lat="43.63092" lon="7.04354">
        <ele>192</ele>
        <time>2011-10-05T16:01:11Z</time>
      </trkpt>
      <trkpt lat="43.63098" lon="7.04347">
        <ele>192</ele>
        <time>2011-10-05T16:01:17Z</time>
      </trkpt>
      <trkpt lat="43.63105" lon="7.04344">
        <ele>192</ele>
        <time>2011-10-05T16:01:22Z</time>
      </trkpt>
      <trkpt lat="43.63115" lon="7.04343">
        <ele>193</ele>
        <time>2011-10-05T16:01:27Z</time>
      </trkpt>
      <trkpt lat="43.63123" lon="7.04338">
        <ele>194</ele>
        <time>2011-10-05T16:01:32Z</time>
      </trkpt>
      <trkpt lat="43.63128" lon="7.04328">
        <ele>195</ele>
        <time>2011-10-05T16:01:37Z</time>
      </trkpt>
      <trkpt lat="43.63133" lon="7.04321">
        <ele>195</ele>
        <time>2011-10-05T16:01:43Z</time>
      </trkpt>
      <trkpt lat="43.63138" lon="7.04319">
        <ele>197</ele>
        <time>2011-10-05T16:01:48Z</time>
      </trkpt>
      <trkpt lat="43.63146" lon="7.04317">
        <ele>197</ele>
        <time>2011-10-05T16:01:53Z</time>
      </trkpt>
      <trkpt lat="43.63154" lon="7.04314">
        <ele>197</ele>
        <time>2011-10-05T16:01:58Z</time>
      </trkpt>
      <trkpt lat="43.63161" lon="7.04312">
        <ele>198</ele>
        <time>2011-10-05T16:02:03Z</time>
      </trkpt>
      <trkpt lat="43.63168" lon="7.04308">
        <ele>198</ele>
        <time>2011-10-05T16:02:09Z</time>
      </trkpt>
      <trkpt lat="43.63168" lon="7.04304">
        <ele>198</ele>
        <time>2011-10-05T16:02:23Z</time>
      </trkpt>
      <trkpt lat="43.63166" lon="7.04298">
        <ele>198</ele>
        <time>2011-10-05T16:02:29Z</time>
      </trkpt>
      <trkpt lat="43.63162" lon="7.04291">
        <ele>198</ele>
        <time>2011-10-05T16:02:35Z</time>
      </trkpt>
      <trkpt lat="43.6316" lon="7.04284">
        <ele>198</ele>
        <time>2011-10-05T16:02:41Z</time>
      </trkpt>
      <trkpt lat="43.63155" lon="7.04278">
        <ele>198</ele>
        <time>2011-10-05T16:02:47Z</time>
      </trkpt>
      <trkpt lat="43.63151" lon="7.0427">
        <ele>198</ele>
        <time>2011-10-05T16:02:52Z</time>
      </trkpt>
      <trkpt lat="43.63148" lon="7.04265">
        <ele>198</ele>
        <time>2011-10-05T16:02:57Z</time>
      </trkpt>
      <trkpt lat="43.63147" lon="7.04258">
        <ele>198</ele>
        <time>2011-10-05T16:03:03Z</time>
      </trkpt>
      <trkpt lat="43.63144" lon="7.04252">
        <ele>198</ele>
        <time>2011-10-05T16:03:10Z</time>
      </trkpt>
      <trkpt lat="43.63141" lon="7.04247">
        <ele>198</ele>
        <time>2011-10-05T16:03:16Z</time>
      </trkpt>
      <trkpt lat="43.63139" lon="7.04244">
        <ele>198</ele>
        <time>2011-10-05T16:03:24Z</time>
      </trkpt>
      <trkpt lat="43.63137" lon="7.04237">
        <ele>198</ele>
        <time>2011-10-05T16:03:30Z</time>
      </trkpt>
      <trkpt lat="43.63134" lon="7.04231">
        <ele>198</ele>
        <time>2011-10-05T16:03:35Z</time>
      </trkpt>
      <trkpt lat="43.63132" lon="7.04225">
        <ele>198</ele>
        <time>2011-10-05T16:03:41Z</time>
      </trkpt>
      <trkpt lat="43.63129" lon="7.04219">
        <ele>198</ele>
        <time>2011-10-05T16:03:47Z</time>
      </trkpt>
      <trkpt lat="43.63126" lon="7.04213">
        <ele>198</ele>
        <time>2011-10-05T16:03:52Z</time>
      </trkpt>
      <trkpt lat="43.63121" lon="7.04206">
        <ele>198</ele>
        <time>2011-10-05T16:03:58Z</time>
      </trkpt>
      <trkpt lat="43.63116" lon="7.04199">
        <ele>199</ele>
        <time>2011-10-05T16:04:03Z</time>
      </trkpt>
      <trkpt lat="43.63112" lon="7.04193">
        <ele>199</ele>
        <time>2011-10-05T16:04:08Z</time>
      </trkpt>
      <trkpt lat="43.6311" lon="7.04191">
        <ele>201</ele>
        <time>2011-10-05T16:04:17Z</time>
      </trkpt>
      <trkpt lat="43.63107" lon="7.04186">
        <ele>202</ele>
        <time>2011-10-05T16:04:23Z</time>
      </trkpt>
      <trkpt lat="43.631" lon="7.04178">
        <ele>203</ele>
        <time>2011-10-05T16:04:29Z</time>
      </trkpt>
      <trkpt lat="43.63095" lon="7.0417">
        <ele>203</ele>
        <time>2011-10-05T16:04:34Z</time>
      </trkpt>
      <trkpt lat="43.6309" lon="7.04161">
        <ele>203</ele>
        <time>2011-10-05T16:04:39Z</time>
      </trkpt>
      <trkpt lat="43.63084" lon="7.04154">
        <ele>203</ele>
        <time>2011-10-05T16:04:44Z</time>
      </trkpt>
      <trkpt lat="43.63078" lon="7.0415">
        <ele>203</ele>
        <time>2011-10-05T16:04:49Z</time>
      </trkpt>
      <trkpt lat="43.63075" lon="7.04147">
        <ele>203</ele>
        <time>2011-10-05T16:04:54Z</time>
      </trkpt>
      <trkpt lat="43.63069" lon="7.04141">
        <ele>203</ele>
        <time>2011-10-05T16:05:00Z</time>
      </trkpt>
      <trkpt lat="43.63066" lon="7.04138">
        <ele>203</ele>
        <time>2011-10-05T16:05:08Z</time>
      </trkpt>
      <trkpt lat="43.6306" lon="7.04137">
        <ele>205</ele>
        <time>2011-10-05T16:05:14Z</time>
      </trkpt>
      <trkpt lat="43.63058" lon="7.04131">
        <ele>205</ele>
        <time>2011-10-05T16:05:19Z</time>
      </trkpt>
      <trkpt lat="43.63055" lon="7.04126">
        <ele>205</ele>
        <time>2011-10-05T16:05:24Z</time>
      </trkpt>
      <trkpt lat="43.63047" lon="7.04115">
        <ele>205</ele>
        <time>2011-10-05T16:05:29Z</time>
      </trkpt>
      <trkpt lat="43.6304" lon="7.04108">
        <ele>205</ele>
        <time>2011-10-05T16:05:35Z</time>
      </trkpt>
      <trkpt lat="43.63041" lon="7.04107">
        <ele>205</ele>
        <time>2011-10-05T16:05:47Z</time>
      </trkpt>
      <trkpt lat="43.6304" lon="7.04104">
        <ele>205</ele>
        <time>2011-10-05T16:05:52Z</time>
      </trkpt>
      <trkpt lat="43.63038" lon="7.04098">
        <ele>205</ele>
        <time>2011-10-05T16:05:57Z</time>
      </trkpt>
      <trkpt lat="43.63038" lon="7.04094">
        <ele>205</ele>
        <time>2011-10-05T16:06:04Z</time>
      </trkpt>
      <trkpt lat="43.63034" lon="7.04091">
        <ele>204</ele>
        <time>2011-10-05T16:06:10Z</time>
      </trkpt>
      <trkpt lat="43.63029" lon="7.04083">
        <ele>201</ele>
        <time>2011-10-05T16:06:16Z</time>
      </trkpt>
      <trkpt lat="43.63024" lon="7.04082">
        <ele>200</ele>
        <time>2011-10-05T16:06:22Z</time>
      </trkpt>
      <trkpt lat="43.63016" lon="7.04078">
        <ele>199</ele>
        <time>2011-10-05T16:06:28Z</time>
      </trkpt>
      <trkpt lat="43.6301" lon="7.04071">
        <ele>197</ele>
        <time>2011-10-05T16:06:33Z</time>
      </trkpt>
      <trkpt lat="43.63008" lon="7.04068">
        <ele>197</ele>
        <time>2011-10-05T16:06:40Z</time>
      </trkpt>
      <trkpt lat="43.63" lon="7.04068">
        <ele>197</ele>
        <time>2011-10-05T16:06:45Z</time>
      </trkpt>
      <trkpt lat="43.62994" lon="7.04069">
        <ele>197</ele>
        <time>2011-10-05T16:06:50Z</time>
      </trkpt>
      <trkpt lat="43.62988" lon="7.04071">
        <ele>198</ele>
        <time>2011-10-05T16:06:55Z</time>
      </trkpt>
      <trkpt lat="43.62983" lon="7.04073">
        <ele>199</ele>
        <time>2011-10-05T16:07:01Z</time>
      </trkpt>
      <trkpt lat="43.62976" lon="7.04073">
        <ele>199</ele>
        <time>2011-10-05T16:07:06Z</time>
      </trkpt>
      <trkpt lat="43.62967" lon="7.04071">
        <ele>199</ele>
        <time>2011-10-05T16:07:11Z</time>
      </trkpt>
      <trkpt lat="43.62955" lon="7.0406">
        <ele>199</ele>
        <time>2011-10-05T16:07:16Z</time>
      </trkpt>
      <trkpt lat="43.62951" lon="7.04044">
        <ele>199</ele>
        <time>2011-10-05T16:07:21Z</time>
      </trkpt>
      <trkpt lat="43.62951" lon="7.04035">
        <ele>198</ele>
        <time>2011-10-05T16:07:26Z</time>
      </trkpt>
      <trkpt lat="43.62949" lon="7.04036">
        <ele>198</ele>
        <time>2011-10-05T16:07:32Z</time>
      </trkpt>
      <trkpt lat="43.62948" lon="7.04039">
        <ele>198</ele>
        <time>2011-10-05T16:07:37Z</time>
      </trkpt>
      <trkpt lat="43.62946" lon="7.04037">
        <ele>198</ele>
        <time>2011-10-05T16:07:43Z</time>
      </trkpt>
      <trkpt lat="43.62948" lon="7.04038">
        <ele>197</ele>
        <time>2011-10-05T16:07:49Z</time>
      </trkpt>
      <trkpt lat="43.6295" lon="7.04038">
        <ele>197</ele>
        <time>2011-10-05T16:07:55Z</time>
      </trkpt>
      <trkpt lat="43.62951" lon="7.04038">
        <ele>197</ele>
        <time>2011-10-05T16:08:08Z</time>
      </trkpt>
      <trkpt lat="43.62951" lon="7.0404">
        <ele>197</ele>
        <time>2011-10-05T16:08:23Z</time>
      </trkpt>
      <trkpt lat="43.62946" lon="7.04041">
        <ele>197</ele>
        <time>2011-10-05T16:08:29Z</time>
      </trkpt>
      <trkpt lat="43.62942" lon="7.04037">
        <ele>197</ele>
        <time>2011-10-05T16:08:34Z</time>
      </trkpt>
      <trkpt lat="43.62938" lon="7.04029">
        <ele>197</ele>
        <time>2011-10-05T16:08:40Z</time>
      </trkpt>
      <trkpt lat="43.62933" lon="7.04023">
        <ele>197</ele>
        <time>2011-10-05T16:08:46Z</time>
      </trkpt>
      <trkpt lat="43.6293" lon="7.04017">
        <ele>197</ele>
        <time>2011-10-05T16:08:52Z</time>
      </trkpt>
      <trkpt lat="43.62926" lon="7.04011">
        <ele>197</ele>
        <time>2011-10-05T16:08:57Z</time>
      </trkpt>
      <trkpt lat="43.62922" lon="7.04005">
        <ele>197</ele>
        <time>2011-10-05T16:09:02Z</time>
      </trkpt>
      <trkpt lat="43.62918" lon="7.03999">
        <ele>197</ele>
        <time>2011-10-05T16:09:08Z</time>
      </trkpt>
      <trkpt lat="43.62917" lon="7.03997">
        <ele>197</ele>
        <time>2011-10-05T16:09:15Z</time>
      </trkpt>
      <trkpt lat="43.62914" lon="7.03991">
        <ele>197</ele>
        <time>2011-10-05T16:09:20Z</time>
      </trkpt>
      <trkpt lat="43.6291" lon="7.03982">
        <ele>197</ele>
        <time>2011-10-05T16:09:25Z</time>
      </trkpt>
      <trkpt lat="43.62907" lon="7.03974">
        <ele>197</ele>
        <time>2011-10-05T16:09:30Z</time>
      </trkpt>
      <trkpt lat="43.62902" lon="7.03965">
        <ele>197</ele>
        <time>2011-10-05T16:09:35Z</time>
      </trkpt>
      <trkpt lat="43.62897" lon="7.03953">
        <ele>197</ele>
        <time>2011-10-05T16:09:40Z</time>
      </trkpt>
      <trkpt lat="43.62891" lon="7.03943">
        <ele>198</ele>
        <time>2011-10-05T16:09:45Z</time>
      </trkpt>
      <trkpt lat="43.62886" lon="7.03933">
        <ele>199</ele>
        <time>2011-10-05T16:09:50Z</time>
      </trkpt>
      <trkpt lat="43.62885" lon="7.03924">
        <ele>199</ele>
        <time>2011-10-05T16:09:55Z</time>
      </trkpt>
      <trkpt lat="43.62885" lon="7.03913">
        <ele>199</ele>
        <time>2011-10-05T16:10:00Z</time>
      </trkpt>
      <trkpt lat="43.62883" lon="7.03898">
        <ele>200</ele>
        <time>2011-10-05T16:10:05Z</time>
      </trkpt>
      <trkpt lat="43.62883" lon="7.03888">
        <ele>201</ele>
        <time>2011-10-05T16:10:10Z</time>
      </trkpt>
      <trkpt lat="43.62881" lon="7.03878">
        <ele>201</ele>
        <time>2011-10-05T16:10:15Z</time>
      </trkpt>
      <trkpt lat="43.62881" lon="7.03866">
        <ele>201</ele>
        <time>2011-10-05T16:10:20Z</time>
      </trkpt>
      <trkpt lat="43.62887" lon="7.03858">
        <ele>201</ele>
        <time>2011-10-05T16:10:25Z</time>
      </trkpt>
      <trkpt lat="43.62891" lon="7.03846">
        <ele>201</ele>
        <time>2011-10-05T16:10:30Z</time>
      </trkpt>
      <trkpt lat="43.62892" lon="7.03825">
        <ele>201</ele>
        <time>2011-10-05T16:10:35Z</time>
      </trkpt>
      <trkpt lat="43.62891" lon="7.03808">
        <ele>201</ele>
        <time>2011-10-05T16:10:40Z</time>
      </trkpt>
      <trkpt lat="43.62893" lon="7.03797">
        <ele>201</ele>
        <time>2011-10-05T16:10:45Z</time>
      </trkpt>
      <trkpt lat="43.62887" lon="7.03784">
        <ele>201</ele>
        <time>2011-10-05T16:10:50Z</time>
      </trkpt>
      <trkpt lat="43.62882" lon="7.03774">
        <ele>201</ele>
        <time>2011-10-05T16:10:55Z</time>
      </trkpt>
      <trkpt lat="43.6288" lon="7.03767">
        <ele>201</ele>
        <time>2011-10-05T16:11:00Z</time>
      </trkpt>
      <trkpt lat="43.62873" lon="7.03762">
        <ele>201</ele>
        <time>2011-10-05T16:11:05Z</time>
      </trkpt>
      <trkpt lat="43.62872" lon="7.03746">
        <ele>201</ele>
        <time>2011-10-05T16:11:10Z</time>
      </trkpt>
      <trkpt lat="43.6287" lon="7.03735">
        <ele>201</ele>
        <time>2011-10-05T16:11:15Z</time>
      </trkpt>
      <trkpt lat="43.6287" lon="7.03718">
        <ele>201</ele>
        <time>2011-10-05T16:11:20Z</time>
      </trkpt>
      <trkpt lat="43.62866" lon="7.03697">
        <ele>201</ele>
        <time>2011-10-05T16:11:25Z</time>
      </trkpt>
      <trkpt lat="43.62865" lon="7.0368">
        <ele>201</ele>
        <time>2011-10-05T16:11:30Z</time>
      </trkpt>
      <trkpt lat="43.62865" lon="7.03666">
        <ele>199</ele>
        <time>2011-10-05T16:11:35Z</time>
      </trkpt>
      <trkpt lat="43.62862" lon="7.03651">
        <ele>197</ele>
        <time>2011-10-05T16:11:40Z</time>
      </trkpt>
      <trkpt lat="43.62855" lon="7.03632">
        <ele>195</ele>
        <time>2011-10-05T16:11:45Z</time>
      </trkpt>
      <trkpt lat="43.62848" lon="7.03609">
        <ele>195</ele>
        <time>2011-10-05T16:11:50Z</time>
      </trkpt>
      <trkpt lat="43.62848" lon="7.03598">
        <ele>195</ele>
        <time>2011-10-05T16:11:56Z</time>
      </trkpt>
      <trkpt lat="43.62847" lon="7.03593">
        <ele>196</ele>
        <time>2011-10-05T16:12:04Z</time>
      </trkpt>
      <trkpt lat="43.62847" lon="7.03592">
        <ele>199</ele>
        <time>2011-10-05T16:12:09Z</time>
      </trkpt>
      <trkpt lat="43.62846" lon="7.03591">
        <ele>203</ele>
        <time>2011-10-05T16:12:23Z</time>
      </trkpt>
      <trkpt lat="43.62845" lon="7.03591">
        <ele>205</ele>
        <time>2011-10-05T16:12:33Z</time>
      </trkpt>
      <trkpt lat="43.62843" lon="7.0359">
        <ele>206</ele>
        <time>2011-10-05T16:12:43Z</time>
      </trkpt>
      <trkpt lat="43.62842" lon="7.03594">
        <ele>206</ele>
        <time>2011-10-05T16:12:48Z</time>
      </trkpt>
      <trkpt lat="43.6284" lon="7.03603">
        <ele>206</ele>
        <time>2011-10-05T16:12:53Z</time>
      </trkpt>
      <trkpt lat="43.62836" lon="7.03606">
        <ele>206</ele>
        <time>2011-10-05T16:12:58Z</time>
      </trkpt>
      <trkpt lat="43.62834" lon="7.03588">
        <ele>205</ele>
        <time>2011-10-05T16:13:04Z</time>
      </trkpt>
      <trkpt lat="43.62833" lon="7.03579">
        <ele>205</ele>
        <time>2011-10-05T16:13:09Z</time>
      </trkpt>
      <trkpt lat="43.62835" lon="7.03587">
        <ele>205</ele>
        <time>2011-10-05T16:13:14Z</time>
      </trkpt>
      <trkpt lat="43.62846" lon="7.03597">
        <ele>205</ele>
        <time>2011-10-05T16:13:19Z</time>
      </trkpt>
      <trkpt lat="43.62853" lon="7.03602">
        <ele>205</ele>
        <time>2011-10-05T16:13:24Z</time>
      </trkpt>
      <trkpt lat="43.6286" lon="7.03608">
        <ele>205</ele>
        <time>2011-10-05T16:13:29Z</time>
      </trkpt>
      <trkpt lat="43.62861" lon="7.03617">
        <ele>205</ele>
        <time>2011-10-05T16:13:34Z</time>
      </trkpt>
      <trkpt lat="43.62859" lon="7.03632">
        <ele>206</ele>
        <time>2011-10-05T16:13:39Z</time>
      </trkpt>
      <trkpt lat="43.6286" lon="7.03641">
        <ele>209</ele>
        <time>2011-10-05T16:13:44Z</time>
      </trkpt>
      <trkpt lat="43.6286" lon="7.03644">
        <ele>210</ele>
        <time>2011-10-05T16:13:49Z</time>
      </trkpt>
      <trkpt lat="43.62859" lon="7.03646">
        <ele>210</ele>
        <time>2011-10-05T16:13:55Z</time>
      </trkpt>
      <trkpt lat="43.62858" lon="7.03645">
        <ele>210</ele>
        <time>2011-10-05T16:14:04Z</time>
      </trkpt>
      <trkpt lat="43.62859" lon="7.03643">
        <ele>212</ele>
        <time>2011-10-05T16:14:10Z</time>
      </trkpt>
      <trkpt lat="43.62861" lon="7.03644">
        <ele>212</ele>
        <time>2011-10-05T16:14:15Z</time>
      </trkpt>
      <trkpt lat="43.62862" lon="7.03639">
        <ele>213</ele>
        <time>2011-10-05T16:14:20Z</time>
      </trkpt>
      <trkpt lat="43.62866" lon="7.03635">
        <ele>213</ele>
        <time>2011-10-05T16:14:25Z</time>
      </trkpt>
      <trkpt lat="43.62872" lon="7.03627">
        <ele>213</ele>
        <time>2011-10-05T16:14:31Z</time>
      </trkpt>
      <trkpt lat="43.62865" lon="7.03621">
        <ele>210</ele>
        <time>2011-10-05T16:14:36Z</time>
      </trkpt>
      <trkpt lat="43.62863" lon="7.03613">
        <ele>205</ele>
        <time>2011-10-05T16:14:41Z</time>
      </trkpt>
      <trkpt lat="43.62857" lon="7.03605">
        <ele>204</ele>
        <time>2011-10-05T16:14:46Z</time>
      </trkpt>
      <trkpt lat="43.62846" lon="7.03597">
        <ele>204</ele>
        <time>2011-10-05T16:14:51Z</time>
      </trkpt>
      <trkpt lat="43.62836" lon="7.0359">
        <ele>204</ele>
        <time>2011-10-05T16:14:56Z</time>
      </trkpt>
      <trkpt lat="43.62834" lon="7.03581">
        <ele>204</ele>
        <time>2011-10-05T16:15:02Z</time>
      </trkpt>
      <trkpt lat="43.62836" lon="7.03565">
        <ele>204</ele>
        <time>2011-10-05T16:15:07Z</time>
      </trkpt>
      <trkpt lat="43.62841" lon="7.03546">
        <ele>204</ele>
        <time>2011-10-05T16:15:12Z</time>
      </trkpt>
      <trkpt lat="43.62847" lon="7.03529">
        <ele>204</ele>
        <time>2011-10-05T16:15:17Z</time>
      </trkpt>
      <trkpt lat="43.62855" lon="7.03512">
        <ele>204</ele>
        <time>2011-10-05T16:15:22Z</time>
      </trkpt>
      <trkpt lat="43.62863" lon="7.03496">
        <ele>204</ele>
        <time>2011-10-05T16:15:27Z</time>
      </trkpt>
      <trkpt lat="43.62872" lon="7.03479">
        <ele>204</ele>
        <time>2011-10-05T16:15:32Z</time>
      </trkpt>
      <trkpt lat="43.62881" lon="7.0346">
        <ele>204</ele>
        <time>2011-10-05T16:15:37Z</time>
      </trkpt>
      <trkpt lat="43.62893" lon="7.03436">
        <ele>201</ele>
        <time>2011-10-05T16:15:43Z</time>
      </trkpt>
      <trkpt lat="43.62907" lon="7.03413">
        <ele>200</ele>
        <time>2011-10-05T16:15:48Z</time>
      </trkpt>
      <trkpt lat="43.62912" lon="7.03392">
        <ele>199</ele>
        <time>2011-10-05T16:15:53Z</time>
      </trkpt>
      <trkpt lat="43.62915" lon="7.03373">
        <ele>197</ele>
        <time>2011-10-05T16:15:58Z</time>
      </trkpt>
      <trkpt lat="43.62917" lon="7.03351">
        <ele>196</ele>
        <time>2011-10-05T16:16:03Z</time>
      </trkpt>
      <trkpt lat="43.62917" lon="7.03321">
        <ele>195</ele>
        <time>2011-10-05T16:16:08Z</time>
      </trkpt>
      <trkpt lat="43.62912" lon="7.03297">
        <ele>194</ele>
        <time>2011-10-05T16:16:13Z</time>
      </trkpt>
      <trkpt lat="43.62902" lon="7.03275">
        <ele>193</ele>
        <time>2011-10-05T16:16:18Z</time>
      </trkpt>
      <trkpt lat="43.62888" lon="7.03253">
        <ele>192</ele>
        <time>2011-10-05T16:16:24Z</time>
      </trkpt>
      <trkpt lat="43.62878" lon="7.03234">
        <ele>191</ele>
        <time>2011-10-05T16:16:29Z</time>
      </trkpt>
      <trkpt lat="43.62876" lon="7.03212">
        <ele>190</ele>
        <time>2011-10-05T16:16:34Z</time>
      </trkpt>
      <trkpt lat="43.6288" lon="7.03191">
        <ele>188</ele>
        <time>2011-10-05T16:16:39Z</time>
      </trkpt>
      <trkpt lat="43.62887" lon="7.03173">
        <ele>185</ele>
        <time>2011-10-05T16:16:44Z</time>
      </trkpt>
      <trkpt lat="43.62894" lon="7.03154">
        <ele>183</ele>
        <time>2011-10-05T16:16:49Z</time>
      </trkpt>
      <trkpt lat="43.62899" lon="7.03134">
        <ele>183</ele>
        <time>2011-10-05T16:16:54Z</time>
      </trkpt>
      <trkpt lat="43.62901" lon="7.03113">
        <ele>182</ele>
        <time>2011-10-05T16:16:59Z</time>
      </trkpt>
      <trkpt lat="43.62898" lon="7.03087">
        <ele>181</ele>
        <time>2011-10-05T16:17:04Z</time>
      </trkpt>
      <trkpt lat="43.62895" lon="7.03043">
        <ele>178</ele>
        <time>2011-10-05T16:17:10Z</time>
      </trkpt>
      <trkpt lat="43.62902" lon="7.02995">
        <ele>176</ele>
        <time>2011-10-05T16:17:15Z</time>
      </trkpt>
      <trkpt lat="43.62912" lon="7.02941">
        <ele>173</ele>
        <time>2011-10-05T16:17:20Z</time>
      </trkpt>
      <trkpt lat="43.62914" lon="7.02877">
        <ele>169</ele>
        <time>2011-10-05T16:17:25Z</time>
      </trkpt>
      <trkpt lat="43.62907" lon="7.02814">
        <ele>164</ele>
        <time>2011-10-05T16:17:30Z</time>
      </trkpt>
      <trkpt lat="43.62908" lon="7.02787">
        <ele>159</ele>
        <time>2011-10-05T16:17:35Z</time>
      </trkpt>
      <trkpt lat="43.62907" lon="7.02789">
        <ele>158</ele>
        <time>2011-10-05T16:17:42Z</time>
      </trkpt>
      <trkpt lat="43.62911" lon="7.02794">
        <ele>158</ele>
        <time>2011-10-05T16:17:48Z</time>
      </trkpt>
      <trkpt lat="43.62907" lon="7.02786">
        <ele>158</ele>
        <time>2011-10-05T16:17:55Z</time>
      </trkpt>
      <trkpt lat="43.62897" lon="7.02777">
        <ele>158</ele>
        <time>2011-10-05T16:18:01Z</time>
      </trkpt>
      <trkpt lat="43.62887" lon="7.02771">
        <ele>158</ele>
        <time>2011-10-05T16:18:06Z</time>
      </trkpt>
      <trkpt lat="43.62877" lon="7.02769">
        <ele>159</ele>
        <time>2011-10-05T16:18:11Z</time>
      </trkpt>
      <trkpt lat="43.62867" lon="7.02772">
        <ele>160</ele>
        <time>2011-10-05T16:18:16Z</time>
      </trkpt>
      <trkpt lat="43.62863" lon="7.02769">
        <ele>162</ele>
        <time>2011-10-05T16:18:37Z</time>
      </trkpt>
      <trkpt lat="43.62862" lon="7.02767">
        <ele>164</ele>
        <time>2011-10-05T16:18:42Z</time>
      </trkpt>
      <trkpt lat="43.62862" lon="7.02766">
        <ele>166</ele>
        <time>2011-10-05T16:18:47Z</time>
      </trkpt>
      <trkpt lat="43.62861" lon="7.02764">
        <ele>169</ele>
        <time>2011-10-05T16:18:53Z</time>
      </trkpt>
      <trkpt lat="43.6286" lon="7.02763">
        <ele>172</ele>
        <time>2011-10-05T16:19:02Z</time>
      </trkpt>
      <trkpt lat="43.62859" lon="7.02762">
        <ele>172</ele>
        <time>2011-10-05T16:19:10Z</time>
      </trkpt>
      <trkpt lat="43.62857" lon="7.02761">
        <ele>172</ele>
        <time>2011-10-05T16:19:25Z</time>
      </trkpt>
      <trkpt lat="43.62852" lon="7.02757">
        <ele>172</ele>
        <time>2011-10-05T16:19:31Z</time>
      </trkpt>
      <trkpt lat="43.62848" lon="7.02751">
        <ele>172</ele>
        <time>2011-10-05T16:19:37Z</time>
      </trkpt>
      <trkpt lat="43.62842" lon="7.02744">
        <ele>172</ele>
        <time>2011-10-05T16:19:42Z</time>
      </trkpt>
      <trkpt lat="43.62835" lon="7.02736">
        <ele>172</ele>
        <time>2011-10-05T16:19:48Z</time>
      </trkpt>
      <trkpt lat="43.62829" lon="7.0273">
        <ele>172</ele>
        <time>2011-10-05T16:19:53Z</time>
      </trkpt>
      <trkpt lat="43.62823" lon="7.02725">
        <ele>172</ele>
        <time>2011-10-05T16:19:58Z</time>
      </trkpt>
      <trkpt lat="43.62815" lon="7.02722">
        <ele>173</ele>
        <time>2011-10-05T16:20:03Z</time>
      </trkpt>
      <trkpt lat="43.62806" lon="7.02717">
        <ele>175</ele>
        <time>2011-10-05T16:20:09Z</time>
      </trkpt>
      <trkpt lat="43.62798" lon="7.02712">
        <ele>175</ele>
        <time>2011-10-05T16:20:14Z</time>
      </trkpt>
      <trkpt lat="43.62791" lon="7.02706">
        <ele>176</ele>
        <time>2011-10-05T16:20:19Z</time>
      </trkpt>
      <trkpt lat="43.62784" lon="7.027">
        <ele>177</ele>
        <time>2011-10-05T16:20:24Z</time>
      </trkpt>
      <trkpt lat="43.62778" lon="7.02693">
        <ele>178</ele>
        <time>2011-10-05T16:20:29Z</time>
      </trkpt>
      <trkpt lat="43.62772" lon="7.02684">
        <ele>178</ele>
        <time>2011-10-05T16:20:34Z</time>
      </trkpt>
      <trkpt lat="43.62768" lon="7.02674">
        <ele>179</ele>
        <time>2011-10-05T16:20:39Z</time>
      </trkpt>
      <trkpt lat="43.62763" lon="7.02664">
        <ele>179</ele>
        <time>2011-10-05T16:20:44Z</time>
      </trkpt>
      <trkpt lat="43.62759" lon="7.02654">
        <ele>179</ele>
        <time>2011-10-05T16:20:49Z</time>
      </trkpt>
      <trkpt lat="43.62754" lon="7.02645">
        <ele>179</ele>
        <time>2011-10-05T16:20:54Z</time>
      </trkpt>
      <trkpt lat="43.62749" lon="7.02637">
        <ele>179</ele>
        <time>2011-10-05T16:20:59Z</time>
      </trkpt>
      <trkpt lat="43.62744" lon="7.0263">
        <ele>181</ele>
        <time>2011-10-05T16:21:04Z</time>
      </trkpt>
      <trkpt lat="43.6274" lon="7.02625">
        <ele>182</ele>
        <time>2011-10-05T16:21:09Z</time>
      </trkpt>
      <trkpt lat="43.62731" lon="7.0262">
        <ele>182</ele>
        <time>2011-10-05T16:21:14Z</time>
      </trkpt>
      <trkpt lat="43.6272" lon="7.02613">
        <ele>183</ele>
        <time>2011-10-05T16:21:19Z</time>
      </trkpt>
      <trkpt lat="43.62712" lon="7.02609">
        <ele>184</ele>
        <time>2011-10-05T16:21:24Z</time>
      </trkpt>
      <trkpt lat="43.62705" lon="7.02608">
        <ele>184</ele>
        <time>2011-10-05T16:21:30Z</time>
      </trkpt>
      <trkpt lat="43.627" lon="7.02607">
        <ele>184</ele>
        <time>2011-10-05T16:21:35Z</time>
      </trkpt>
      <trkpt lat="43.62693" lon="7.02609">
        <ele>185</ele>
        <time>2011-10-05T16:21:40Z</time>
      </trkpt>
      <trkpt lat="43.62687" lon="7.02609">
        <ele>185</ele>
        <time>2011-10-05T16:21:46Z</time>
      </trkpt>
      <trkpt lat="43.62679" lon="7.02611">
        <ele>185</ele>
        <time>2011-10-05T16:21:51Z</time>
      </trkpt>
      <trkpt lat="43.62671" lon="7.02614">
        <ele>186</ele>
        <time>2011-10-05T16:21:56Z</time>
      </trkpt>
      <trkpt lat="43.62662" lon="7.02622">
        <ele>190</ele>
        <time>2011-10-05T16:22:01Z</time>
      </trkpt>
      <trkpt lat="43.62655" lon="7.02628">
        <ele>195</ele>
        <time>2011-10-05T16:22:06Z</time>
      </trkpt>
      <trkpt lat="43.62649" lon="7.02631">
        <ele>200</ele>
        <time>2011-10-05T16:22:11Z</time>
      </trkpt>
      <trkpt lat="43.62643" lon="7.02633">
        <ele>203</ele>
        <time>2011-10-05T16:22:17Z</time>
      </trkpt>
      <trkpt lat="43.62638" lon="7.02634">
        <ele>203</ele>
        <time>2011-10-05T16:22:22Z</time>
      </trkpt>
      <trkpt lat="43.62632" lon="7.02637">
        <ele>203</ele>
        <time>2011-10-05T16:22:27Z</time>
      </trkpt>
      <trkpt lat="43.62627" lon="7.02638">
        <ele>203</ele>
        <time>2011-10-05T16:22:34Z</time>
      </trkpt>
      <trkpt lat="43.62622" lon="7.02642">
        <ele>203</ele>
        <time>2011-10-05T16:22:39Z</time>
      </trkpt>
      <trkpt lat="43.62615" lon="7.02646">
        <ele>203</ele>
        <time>2011-10-05T16:22:45Z</time>
      </trkpt>
      <trkpt lat="43.62607" lon="7.02648">
        <ele>203</ele>
        <time>2011-10-05T16:22:50Z</time>
      </trkpt>
      <trkpt lat="43.626" lon="7.0265">
        <ele>203</ele>
        <time>2011-10-05T16:22:55Z</time>
      </trkpt>
      <trkpt lat="43.62591" lon="7.02653">
        <ele>203</ele>
        <time>2011-10-05T16:23:00Z</time>
      </trkpt>
      <trkpt lat="43.62585" lon="7.02654">
        <ele>203</ele>
        <time>2011-10-05T16:23:05Z</time>
      </trkpt>
      <trkpt lat="43.62578" lon="7.02657">
        <ele>203</ele>
        <time>2011-10-05T16:23:10Z</time>
      </trkpt>
      <trkpt lat="43.62572" lon="7.02658">
        <ele>203</ele>
        <time>2011-10-05T16:23:15Z</time>
      </trkpt>
      <trkpt lat="43.62564" lon="7.02658">
        <ele>203</ele>
        <time>2011-10-05T16:23:21Z</time>
      </trkpt>
      <trkpt lat="43.62567" lon="7.02659">
        <ele>203</ele>
        <time>2011-10-05T16:23:27Z</time>
      </trkpt>
      <trkpt lat="43.62566" lon="7.02657">
        <ele>203</ele>
        <time>2011-10-05T16:23:33Z</time>
      </trkpt>
      <trkpt lat="43.62566" lon="7.02656">
        <ele>203</ele>
        <time>2011-10-05T16:23:42Z</time>
      </trkpt>
      <trkpt lat="43.62565" lon="7.02654">
        <ele>203</ele>
        <time>2011-10-05T16:24:03Z</time>
      </trkpt>
      <trkpt lat="43.62558" lon="7.02653">
        <ele>203</ele>
        <time>2011-10-05T16:24:08Z</time>
      </trkpt>
      <trkpt lat="43.62552" lon="7.02654">
        <ele>203</ele>
        <time>2011-10-05T16:24:13Z</time>
      </trkpt>
      <trkpt lat="43.62552" lon="7.02652">
        <ele>204</ele>
        <time>2011-10-05T16:24:18Z</time>
      </trkpt>
      <trkpt lat="43.62559" lon="7.02654">
        <ele>204</ele>
        <time>2011-10-05T16:24:23Z</time>
      </trkpt>
      <trkpt lat="43.62565" lon="7.02656">
        <ele>204</ele>
        <time>2011-10-05T16:24:28Z</time>
      </trkpt>
      <trkpt lat="43.62566" lon="7.02659">
        <ele>204</ele>
        <time>2011-10-05T16:24:47Z</time>
      </trkpt>
      <trkpt lat="43.62566" lon="7.02657">
        <ele>204</ele>
        <time>2011-10-05T16:24:54Z</time>
      </trkpt>
      <trkpt lat="43.62564" lon="7.02655">
        <ele>204</ele>
        <time>2011-10-05T16:25:00Z</time>
      </trkpt>
      <trkpt lat="43.62559" lon="7.02656">
        <ele>204</ele>
        <time>2011-10-05T16:25:06Z</time>
      </trkpt>
      <trkpt lat="43.62554" lon="7.02656">
        <ele>204</ele>
        <time>2011-10-05T16:25:11Z</time>
      </trkpt>
      <trkpt lat="43.6255" lon="7.02654">
        <ele>204</ele>
        <time>2011-10-05T16:25:17Z</time>
      </trkpt>
      <trkpt lat="43.62547" lon="7.02651">
        <ele>204</ele>
        <time>2011-10-05T16:25:27Z</time>
      </trkpt>
      <trkpt lat="43.62538" lon="7.0265">
        <ele>204</ele>
        <time>2011-10-05T16:25:32Z</time>
      </trkpt>
      <trkpt lat="43.62529" lon="7.0265">
        <ele>204</ele>
        <time>2011-10-05T16:25:37Z</time>
      </trkpt>
      <trkpt lat="43.62521" lon="7.0265">
        <ele>204</ele>
        <time>2011-10-05T16:25:42Z</time>
      </trkpt>
      <trkpt lat="43.62512" lon="7.02651">
        <ele>205</ele>
        <time>2011-10-05T16:25:47Z</time>
      </trkpt>
      <trkpt lat="43.62506" lon="7.02651">
        <ele>205</ele>
        <time>2011-10-05T16:25:52Z</time>
      </trkpt>
      <trkpt lat="43.62497" lon="7.02652">
        <ele>207</ele>
        <time>2011-10-05T16:25:57Z</time>
      </trkpt>
      <trkpt lat="43.62489" lon="7.02655">
        <ele>211</ele>
        <time>2011-10-05T16:26:02Z</time>
      </trkpt>
      <trkpt lat="43.6248" lon="7.02657">
        <ele>214</ele>
        <time>2011-10-05T16:26:07Z</time>
      </trkpt>
      <trkpt lat="43.62472" lon="7.02659">
        <ele>217</ele>
        <time>2011-10-05T16:26:12Z</time>
      </trkpt>
      <trkpt lat="43.62465" lon="7.02659">
        <ele>221</ele>
        <time>2011-10-05T16:26:17Z</time>
      </trkpt>
      <trkpt lat="43.62456" lon="7.02654">
        <ele>222</ele>
        <time>2011-10-05T16:26:22Z</time>
      </trkpt>
      <trkpt lat="43.62447" lon="7.02645">
        <ele>222</ele>
        <time>2011-10-05T16:26:27Z</time>
      </trkpt>
      <trkpt lat="43.62438" lon="7.02636">
        <ele>221</ele>
        <time>2011-10-05T16:26:32Z</time>
      </trkpt>
      <trkpt lat="43.62426" lon="7.02628">
        <ele>219</ele>
        <time>2011-10-05T16:26:38Z</time>
      </trkpt>
      <trkpt lat="43.62415" lon="7.02615">
        <ele>218</ele>
        <time>2011-10-05T16:26:43Z</time>
      </trkpt>
      <trkpt lat="43.62409" lon="7.02608">
        <ele>218</ele>
        <time>2011-10-05T16:26:48Z</time>
      </trkpt>
      <trkpt lat="43.62403" lon="7.02598">
        <ele>218</ele>
        <time>2011-10-05T16:26:53Z</time>
      </trkpt>
      <trkpt lat="43.62399" lon="7.02584">
        <ele>218</ele>
        <time>2011-10-05T16:26:58Z</time>
      </trkpt>
      <trkpt lat="43.62395" lon="7.02572">
        <ele>218</ele>
        <time>2011-10-05T16:27:03Z</time>
      </trkpt>
      <trkpt lat="43.62391" lon="7.0256">
        <ele>217</ele>
        <time>2011-10-05T16:27:08Z</time>
      </trkpt>
      <trkpt lat="43.62383" lon="7.02545">
        <ele>217</ele>
        <time>2011-10-05T16:27:13Z</time>
      </trkpt>
      <trkpt lat="43.62376" lon="7.02534">
        <ele>217</ele>
        <time>2011-10-05T16:27:18Z</time>
      </trkpt>
      <trkpt lat="43.62372" lon="7.02524">
        <ele>217</ele>
        <time>2011-10-05T16:27:23Z</time>
      </trkpt>
      <trkpt lat="43.62369" lon="7.02509">
        <ele>217</ele>
        <time>2011-10-05T16:27:28Z</time>
      </trkpt>
      <trkpt lat="43.62365" lon="7.02496">
        <ele>217</ele>
        <time>2011-10-05T16:27:33Z</time>
      </trkpt>
      <trkpt lat="43.62357" lon="7.02486">
        <ele>217</ele>
        <time>2011-10-05T16:27:38Z</time>
      </trkpt>
      <trkpt lat="43.62349" lon="7.02487">
        <ele>217</ele>
        <time>2011-10-05T16:27:43Z</time>
      </trkpt>
      <trkpt lat="43.62342" lon="7.02497">
        <ele>217</ele>
        <time>2011-10-05T16:27:48Z</time>
      </trkpt>
      <trkpt lat="43.62341" lon="7.02507">
        <ele>217</ele>
        <time>2011-10-05T16:27:54Z</time>
      </trkpt>
      <trkpt lat="43.62341" lon="7.02516">
        <ele>217</ele>
        <time>2011-10-05T16:28:00Z</time>
      </trkpt>
      <trkpt lat="43.62342" lon="7.0252">
        <ele>217</ele>
        <time>2011-10-05T16:28:05Z</time>
      </trkpt>
      <trkpt lat="43.62343" lon="7.02532">
        <ele>217</ele>
        <time>2011-10-05T16:28:10Z</time>
      </trkpt>
      <trkpt lat="43.62342" lon="7.02545">
        <ele>217</ele>
        <time>2011-10-05T16:28:15Z</time>
      </trkpt>
      <trkpt lat="43.62339" lon="7.02556">
        <ele>218</ele>
        <time>2011-10-05T16:28:21Z</time>
      </trkpt>
      <trkpt lat="43.62339" lon="7.02564">
        <ele>220</ele>
        <time>2011-10-05T16:28:26Z</time>
      </trkpt>
      <trkpt lat="43.62339" lon="7.02568">
        <ele>220</ele>
        <time>2011-10-05T16:28:31Z</time>
      </trkpt>
      <trkpt lat="43.62339" lon="7.02573">
        <ele>221</ele>
        <time>2011-10-05T16:28:36Z</time>
      </trkpt>
      <trkpt lat="43.62339" lon="7.0258">
        <ele>221</ele>
        <time>2011-10-05T16:28:41Z</time>
      </trkpt>
      <trkpt lat="43.62341" lon="7.02588">
        <ele>221</ele>
        <time>2011-10-05T16:28:46Z</time>
      </trkpt>
      <trkpt lat="43.62342" lon="7.02596">
        <ele>221</ele>
        <time>2011-10-05T16:28:51Z</time>
      </trkpt>
      <trkpt lat="43.62343" lon="7.02602">
        <ele>221</ele>
        <time>2011-10-05T16:28:57Z</time>
      </trkpt>
      <trkpt lat="43.62342" lon="7.02608">
        <ele>221</ele>
        <time>2011-10-05T16:29:03Z</time>
      </trkpt>
      <trkpt lat="43.62344" lon="7.02615">
        <ele>221</ele>
        <time>2011-10-05T16:29:08Z</time>
      </trkpt>
      <trkpt lat="43.62345" lon="7.02623">
        <ele>222</ele>
        <time>2011-10-05T16:29:13Z</time>
      </trkpt>
      <trkpt lat="43.62347" lon="7.0263">
        <ele>223</ele>
        <time>2011-10-05T16:29:18Z</time>
      </trkpt>
      <trkpt lat="43.62347" lon="7.02638">
        <ele>224</ele>
        <time>2011-10-05T16:29:23Z</time>
      </trkpt>
      <trkpt lat="43.62349" lon="7.02649">
        <ele>224</ele>
        <time>2011-10-05T16:29:28Z</time>
      </trkpt>
      <trkpt lat="43.62352" lon="7.02659">
        <ele>225</ele>
        <time>2011-10-05T16:29:33Z</time>
      </trkpt>
      <trkpt lat="43.62356" lon="7.02667">
        <ele>225</ele>
        <time>2011-10-05T16:29:39Z</time>
      </trkpt>
      <trkpt lat="43.6236" lon="7.02675">
        <ele>225</ele>
        <time>2011-10-05T16:29:44Z</time>
      </trkpt>
      <trkpt lat="43.62363" lon="7.0268">
        <ele>225</ele>
        <time>2011-10-05T16:29:49Z</time>
      </trkpt>
      <trkpt lat="43.62367" lon="7.02689">
        <ele>225</ele>
        <time>2011-10-05T16:29:55Z</time>
      </trkpt>
      <trkpt lat="43.62368" lon="7.02695">
        <ele>225</ele>
        <time>2011-10-05T16:30:00Z</time>
      </trkpt>
      <trkpt lat="43.62374" lon="7.02696">
        <ele>225</ele>
        <time>2011-10-05T16:30:05Z</time>
      </trkpt>
      <trkpt lat="43.62378" lon="7.02704">
        <ele>226</ele>
        <time>2011-10-05T16:30:10Z</time>
      </trkpt>
      <trkpt lat="43.62378" lon="7.02718">
        <ele>227</ele>
        <time>2011-10-05T16:30:15Z</time>
      </trkpt>
      <trkpt lat="43.62374" lon="7.02727">
        <ele>229</ele>
        <time>2011-10-05T16:30:20Z</time>
      </trkpt>
      <trkpt lat="43.62368" lon="7.0273">
        <ele>232</ele>
        <time>2011-10-05T16:30:25Z</time>
      </trkpt>
      <trkpt lat="43.62362" lon="7.02727">
        <ele>234</ele>
        <time>2011-10-05T16:30:30Z</time>
      </trkpt>
      <trkpt lat="43.62356" lon="7.02718">
        <ele>234</ele>
        <time>2011-10-05T16:30:35Z</time>
      </trkpt>
      <trkpt lat="43.62349" lon="7.02716">
        <ele>234</ele>
        <time>2011-10-05T16:30:40Z</time>
      </trkpt>
      <trkpt lat="43.62338" lon="7.02717">
        <ele>234</ele>
        <time>2011-10-05T16:30:45Z</time>
      </trkpt>
      <trkpt lat="43.62326" lon="7.0272">
        <ele>234</ele>
        <time>2011-10-05T16:30:50Z</time>
      </trkpt>
      <trkpt lat="43.62323" lon="7.02719">
        <ele>234</ele>
        <time>2011-10-05T16:31:02Z</time>
      </trkpt>
      <trkpt lat="43.62323" lon="7.02718">
        <ele>235</ele>
        <time>2011-10-05T16:31:11Z</time>
      </trkpt>
      <trkpt lat="43.62322" lon="7.02717">
        <ele>237</ele>
        <time>2011-10-05T16:31:34Z</time>
      </trkpt>
      <trkpt lat="43.62318" lon="7.02718">
        <ele>237</ele>
        <time>2011-10-05T16:31:40Z</time>
      </trkpt>
      <trkpt lat="43.62315" lon="7.02725">
        <ele>237</ele>
        <time>2011-10-05T16:31:45Z</time>
      </trkpt>
      <trkpt lat="43.62309" lon="7.0273">
        <ele>237</ele>
        <time>2011-10-05T16:31:50Z</time>
      </trkpt>
      <trkpt lat="43.623" lon="7.02737">
        <ele>238</ele>
        <time>2011-10-05T16:31:55Z</time>
      </trkpt>
      <trkpt lat="43.623" lon="7.02749">
        <ele>239</ele>
        <time>2011-10-05T16:32:00Z</time>
      </trkpt>
      <trkpt lat="43.62299" lon="7.02758">
        <ele>240</ele>
        <time>2011-10-05T16:32:05Z</time>
      </trkpt>
      <trkpt lat="43.62295" lon="7.02758">
        <ele>240</ele>
        <time>2011-10-05T16:32:10Z</time>
      </trkpt>
      <trkpt lat="43.62291" lon="7.02756">
        <ele>240</ele>
        <time>2011-10-05T16:32:15Z</time>
      </trkpt>
      <trkpt lat="43.62282" lon="7.02751">
        <ele>240</ele>
        <time>2011-10-05T16:32:20Z</time>
      </trkpt>
      <trkpt lat="43.62289" lon="7.02744">
        <ele>240</ele>
        <time>2011-10-05T16:32:25Z</time>
      </trkpt>
      <trkpt lat="43.62294" lon="7.02748">
        <ele>239</ele>
        <time>2011-10-05T16:32:31Z</time>
      </trkpt>
      <trkpt lat="43.62286" lon="7.0275">
        <ele>239</ele>
        <time>2011-10-05T16:32:36Z</time>
      </trkpt>
      <trkpt lat="43.62272" lon="7.0276">
        <ele>239</ele>
        <time>2011-10-05T16:32:41Z</time>
      </trkpt>
      <trkpt lat="43.62259" lon="7.02778">
        <ele>238</ele>
        <time>2011-10-05T16:32:46Z</time>
      </trkpt>
      <trkpt lat="43.62251" lon="7.028">
        <ele>238</ele>
        <time>2011-10-05T16:32:51Z</time>
      </trkpt>
      <trkpt lat="43.62243" lon="7.02817">
        <ele>238</ele>
        <time>2011-10-05T16:32:56Z</time>
      </trkpt>
      <trkpt lat="43.62236" lon="7.02833">
        <ele>237</ele>
        <time>2011-10-05T16:33:01Z</time>
      </trkpt>
      <trkpt lat="43.62227" lon="7.02851">
        <ele>237</ele>
        <time>2011-10-05T16:33:06Z</time>
      </trkpt>
      <trkpt lat="43.62218" lon="7.02871">
        <ele>237</ele>
        <time>2011-10-05T16:33:11Z</time>
      </trkpt>
      <trkpt lat="43.62208" lon="7.02894">
        <ele>236</ele>
        <time>2011-10-05T16:33:16Z</time>
      </trkpt>
      <trkpt lat="43.62196" lon="7.02917">
        <ele>235</ele>
        <time>2011-10-05T16:33:21Z</time>
      </trkpt>
      <trkpt lat="43.62178" lon="7.02943">
        <ele>233</ele>
        <time>2011-10-05T16:33:26Z</time>
      </trkpt>
      <trkpt lat="43.62155" lon="7.02965">
        <ele>231</ele>
        <time>2011-10-05T16:33:31Z</time>
      </trkpt>
      <trkpt lat="43.6213" lon="7.03001">
        <ele>228</ele>
        <time>2011-10-05T16:33:36Z</time>
      </trkpt>
      <trkpt lat="43.62123" lon="7.0305">
        <ele>224</ele>
        <time>2011-10-05T16:33:41Z</time>
      </trkpt>
      <trkpt lat="43.6213" lon="7.03106">
        <ele>219</ele>
        <time>2011-10-05T16:33:46Z</time>
      </trkpt>
      <trkpt lat="43.62146" lon="7.03168">
        <ele>214</ele>
        <time>2011-10-05T16:33:51Z</time>
      </trkpt>
      <trkpt lat="43.62129" lon="7.03209">
        <ele>209</ele>
        <time>2011-10-05T16:33:56Z</time>
      </trkpt>
      <trkpt lat="43.62109" lon="7.03236">
        <ele>204</ele>
        <time>2011-10-05T16:34:01Z</time>
      </trkpt>
      <trkpt lat="43.621" lon="7.03259">
        <ele>203</ele>
        <time>2011-10-05T16:34:06Z</time>
      </trkpt>
      <trkpt lat="43.62098" lon="7.03271">
        <ele>203</ele>
        <time>2011-10-05T16:34:11Z</time>
      </trkpt>
      <trkpt lat="43.62098" lon="7.03291">
        <ele>203</ele>
        <time>2011-10-05T16:34:16Z</time>
      </trkpt>
      <trkpt lat="43.62103" lon="7.03322">
        <ele>202</ele>
        <time>2011-10-05T16:34:21Z</time>
      </trkpt>
      <trkpt lat="43.62123" lon="7.03342">
        <ele>200</ele>
        <time>2011-10-05T16:34:26Z</time>
      </trkpt>
      <trkpt lat="43.62148" lon="7.0336">
        <ele>197</ele>
        <time>2011-10-05T16:34:31Z</time>
      </trkpt>
      <trkpt lat="43.62175" lon="7.0336">
        <ele>192</ele>
        <time>2011-10-05T16:34:36Z</time>
      </trkpt>
      <trkpt lat="43.62186" lon="7.03357">
        <ele>185</ele>
        <time>2011-10-05T16:34:46Z</time>
      </trkpt>
      <trkpt lat="43.62189" lon="7.03357">
        <ele>185</ele>
        <time>2011-10-05T16:34:53Z</time>
      </trkpt>
      <trkpt lat="43.6219" lon="7.03352">
        <ele>185</ele>
        <time>2011-10-05T16:34:59Z</time>
      </trkpt>
      <trkpt lat="43.62199" lon="7.03346">
        <ele>185</ele>
        <time>2011-10-05T16:35:04Z</time>
      </trkpt>
      <trkpt lat="43.62209" lon="7.03334">
        <ele>184</ele>
        <time>2011-10-05T16:35:09Z</time>
      </trkpt>
      <trkpt lat="43.62218" lon="7.03316">
        <ele>182</ele>
        <time>2011-10-05T16:35:14Z</time>
      </trkpt>
      <trkpt lat="43.62231" lon="7.03303">
        <ele>180</ele>
        <time>2011-10-05T16:35:19Z</time>
      </trkpt>
      <trkpt lat="43.6223" lon="7.03317">
        <ele>179</ele>
        <time>2011-10-05T16:35:24Z</time>
      </trkpt>
      <trkpt lat="43.6222" lon="7.03338">
        <ele>178</ele>
        <time>2011-10-05T16:35:29Z</time>
      </trkpt>
      <trkpt lat="43.62205" lon="7.03367">
        <ele>178</ele>
        <time>2011-10-05T16:35:34Z</time>
      </trkpt>
      <trkpt lat="43.62204" lon="7.03371">
        <ele>178</ele>
        <time>2011-10-05T16:35:44Z</time>
      </trkpt>
      <trkpt lat="43.62205" lon="7.03371">
        <ele>178</ele>
        <time>2011-10-05T16:35:49Z</time>
      </trkpt>
      <trkpt lat="43.6221" lon="7.03377">
        <ele>178</ele>
        <time>2011-10-05T16:35:54Z</time>
      </trkpt>
      <trkpt lat="43.62214" lon="7.03395">
        <ele>178</ele>
        <time>2011-10-05T16:35:59Z</time>
      </trkpt>
      <trkpt lat="43.62206" lon="7.03409">
        <ele>177</ele>
        <time>2011-10-05T16:36:04Z</time>
      </trkpt>
      <trkpt lat="43.62196" lon="7.03425">
        <ele>175</ele>
        <time>2011-10-05T16:36:09Z</time>
      </trkpt>
      <trkpt lat="43.62187" lon="7.03436">
        <ele>175</ele>
        <time>2011-10-05T16:36:14Z</time>
      </trkpt>
      <trkpt lat="43.62181" lon="7.03445">
        <ele>175</ele>
        <time>2011-10-05T16:36:19Z</time>
      </trkpt>
      <trkpt lat="43.62167" lon="7.03467">
        <ele>175</ele>
        <time>2011-10-05T16:36:24Z</time>
      </trkpt>
      <trkpt lat="43.6215" lon="7.03488">
        <ele>175</ele>
        <time>2011-10-05T16:36:29Z</time>
      </trkpt>
      <trkpt lat="43.62135" lon="7.03508">
        <ele>172</ele>
        <time>2011-10-05T16:36:34Z</time>
      </trkpt>
      <trkpt lat="43.6212" lon="7.0353">
        <ele>169</ele>
        <time>2011-10-05T16:36:39Z</time>
      </trkpt>
      <trkpt lat="43.62105" lon="7.03554">
        <ele>165</ele>
        <time>2011-10-05T16:36:44Z</time>
      </trkpt>
      <trkpt lat="43.62103" lon="7.03575">
        <ele>163</ele>
        <time>2011-10-05T16:36:49Z</time>
      </trkpt>
      <trkpt lat="43.62099" lon="7.03582">
        <ele>163</ele>
        <time>2011-10-05T16:36:54Z</time>
      </trkpt>
      <trkpt lat="43.62096" lon="7.03589">
        <ele>163</ele>
        <time>2011-10-05T16:36:59Z</time>
      </trkpt>
      <trkpt lat="43.62094" lon="7.03587">
        <ele>163</ele>
        <time>2011-10-05T16:37:10Z</time>
      </trkpt>
      <trkpt lat="43.62087" lon="7.03584">
        <ele>163</ele>
        <time>2011-10-05T16:37:15Z</time>
      </trkpt>
      <trkpt lat="43.62077" lon="7.03584">
        <ele>163</ele>
        <time>2011-10-05T16:37:20Z</time>
      </trkpt>
      <trkpt lat="43.62067" lon="7.03589">
        <ele>162</ele>
        <time>2011-10-05T16:37:25Z</time>
      </trkpt>
      <trkpt lat="43.62055" lon="7.03591">
        <ele>162</ele>
        <time>2011-10-05T16:37:30Z</time>
      </trkpt>
      <trkpt lat="43.62037" lon="7.03591">
        <ele>161</ele>
        <time>2011-10-05T16:37:35Z</time>
      </trkpt>
      <trkpt lat="43.62025" lon="7.03593">
        <ele>160</ele>
        <time>2011-10-05T16:37:40Z</time>
      </trkpt>
      <trkpt lat="43.62017" lon="7.03595">
        <ele>159</ele>
        <time>2011-10-05T16:37:45Z</time>
      </trkpt>
      <trkpt lat="43.62008" lon="7.03595">
        <ele>158</ele>
        <time>2011-10-05T16:37:50Z</time>
      </trkpt>
      <trkpt lat="43.61998" lon="7.03596">
        <ele>157</ele>
        <time>2011-10-05T16:37:55Z</time>
      </trkpt>
      <trkpt lat="43.61986" lon="7.03597">
        <ele>157</ele>
        <time>2011-10-05T16:38:00Z</time>
      </trkpt>
      <trkpt lat="43.61973" lon="7.03604">
        <ele>155</ele>
        <time>2011-10-05T16:38:05Z</time>
      </trkpt>
      <trkpt lat="43.61958" lon="7.03613">
        <ele>154</ele>
        <time>2011-10-05T16:38:10Z</time>
      </trkpt>
      <trkpt lat="43.61938" lon="7.03603">
        <ele>153</ele>
        <time>2011-10-05T16:38:15Z</time>
      </trkpt>
      <trkpt lat="43.61927" lon="7.03598">
        <ele>152</ele>
        <time>2011-10-05T16:38:20Z</time>
      </trkpt>
      <trkpt lat="43.61919" lon="7.03604">
        <ele>151</ele>
        <time>2011-10-05T16:38:25Z</time>
      </trkpt>
      <trkpt lat="43.61904" lon="7.03617">
        <ele>151</ele>
        <time>2011-10-05T16:38:30Z</time>
      </trkpt>
      <trkpt lat="43.61892" lon="7.03633">
        <ele>149</ele>
        <time>2011-10-05T16:38:35Z</time>
      </trkpt>
      <trkpt lat="43.61879" lon="7.03647">
        <ele>149</ele>
        <time>2011-10-05T16:38:40Z</time>
      </trkpt>
      <trkpt lat="43.61865" lon="7.03662">
        <ele>149</ele>
        <time>2011-10-05T16:38:45Z</time>
      </trkpt>
      <trkpt lat="43.61853" lon="7.03677">
        <ele>149</ele>
        <time>2011-10-05T16:38:50Z</time>
      </trkpt>
      <trkpt lat="43.6184" lon="7.0369">
        <ele>149</ele>
        <time>2011-10-05T16:38:55Z</time>
      </trkpt>
      <trkpt lat="43.6183" lon="7.03703">
        <ele>149</ele>
        <time>2011-10-05T16:39:00Z</time>
      </trkpt>
      <trkpt lat="43.61823" lon="7.03715">
        <ele>149</ele>
        <time>2011-10-05T16:39:05Z</time>
      </trkpt>
      <trkpt lat="43.61813" lon="7.03727">
        <ele>149</ele>
        <time>2011-10-05T16:39:10Z</time>
      </trkpt>
      <trkpt lat="43.61803" lon="7.03742">
        <ele>149</ele>
        <time>2011-10-05T16:39:15Z</time>
      </trkpt>
      <trkpt lat="43.61795" lon="7.03757">
        <ele>149</ele>
        <time>2011-10-05T16:39:20Z</time>
      </trkpt>
      <trkpt lat="43.61786" lon="7.03771">
        <ele>149</ele>
        <time>2011-10-05T16:39:25Z</time>
      </trkpt>
      <trkpt lat="43.61777" lon="7.03786">
        <ele>149</ele>
        <time>2011-10-05T16:39:30Z</time>
      </trkpt>
      <trkpt lat="43.61767" lon="7.03798">
        <ele>149</ele>
        <time>2011-10-05T16:39:35Z</time>
      </trkpt>
      <trkpt lat="43.61758" lon="7.03808">
        <ele>149</ele>
        <time>2011-10-05T16:39:40Z</time>
      </trkpt>
      <trkpt lat="43.61752" lon="7.03816">
        <ele>149</ele>
        <time>2011-10-05T16:39:45Z</time>
      </trkpt>
      <trkpt lat="43.61748" lon="7.03832">
        <ele>149</ele>
        <time>2011-10-05T16:39:50Z</time>
      </trkpt>
      <trkpt lat="43.61744" lon="7.03848">
        <ele>147</ele>
        <time>2011-10-05T16:40:01Z</time>
      </trkpt>
      <trkpt lat="43.61743" lon="7.03858">
        <ele>147</ele>
        <time>2011-10-05T16:40:06Z</time>
      </trkpt>
      <trkpt lat="43.61737" lon="7.03875">
        <ele>146</ele>
        <time>2011-10-05T16:40:11Z</time>
      </trkpt>
      <trkpt lat="43.61734" lon="7.03895">
        <ele>145</ele>
        <time>2011-10-05T16:40:16Z</time>
      </trkpt>
      <trkpt lat="43.61726" lon="7.03911">
        <ele>145</ele>
        <time>2011-10-05T16:40:21Z</time>
      </trkpt>
      <trkpt lat="43.6172" lon="7.03922">
        <ele>145</ele>
        <time>2011-10-05T16:40:26Z</time>
      </trkpt>
      <trkpt lat="43.6172" lon="7.03928">
        <ele>144</ele>
        <time>2011-10-05T16:40:32Z</time>
      </trkpt>
      <trkpt lat="43.6172" lon="7.03932">
        <ele>143</ele>
        <time>2011-10-05T16:40:38Z</time>
      </trkpt>
      <trkpt lat="43.61722" lon="7.03936">
        <ele>142</ele>
        <time>2011-10-05T16:40:43Z</time>
      </trkpt>
      <trkpt lat="43.61723" lon="7.03941">
        <ele>141</ele>
        <time>2011-10-05T16:40:48Z</time>
      </trkpt>
      <trkpt lat="43.61724" lon="7.03947">
        <ele>141</ele>
        <time>2011-10-05T16:40:53Z</time>
      </trkpt>
      <trkpt lat="43.61726" lon="7.03948">
        <ele>140</ele>
        <time>2011-10-05T16:41:00Z</time>
      </trkpt>
      <trkpt lat="43.61727" lon="7.03957">
        <ele>139</ele>
        <time>2011-10-05T16:41:05Z</time>
      </trkpt>
      <trkpt lat="43.61728" lon="7.03965">
        <ele>138</ele>
        <time>2011-10-05T16:41:10Z</time>
      </trkpt>
      <trkpt lat="43.61728" lon="7.03972">
        <ele>138</ele>
        <time>2011-10-05T16:41:15Z</time>
      </trkpt>
      <trkpt lat="43.61729" lon="7.03983">
        <ele>137</ele>
        <time>2011-10-05T16:41:20Z</time>
      </trkpt>
      <trkpt lat="43.6173" lon="7.03996">
        <ele>137</ele>
        <time>2011-10-05T16:41:25Z</time>
      </trkpt>
      <trkpt lat="43.61729" lon="7.04007">
        <ele>137</ele>
        <time>2011-10-05T16:41:30Z</time>
      </trkpt>
      <trkpt lat="43.61726" lon="7.04022">
        <ele>137</ele>
        <time>2011-10-05T16:41:35Z</time>
      </trkpt>
      <trkpt lat="43.61723" lon="7.04039">
        <ele>137</ele>
        <time>2011-10-05T16:41:40Z</time>
      </trkpt>
      <trkpt lat="43.61719" lon="7.04055">
        <ele>137</ele>
        <time>2011-10-05T16:41:45Z</time>
      </trkpt>
      <trkpt lat="43.61716" lon="7.0407">
        <ele>137</ele>
        <time>2011-10-05T16:41:50Z</time>
      </trkpt>
      <trkpt lat="43.61714" lon="7.04085">
        <ele>137</ele>
        <time>2011-10-05T16:41:55Z</time>
      </trkpt>
      <trkpt lat="43.61711" lon="7.04101">
        <ele>137</ele>
        <time>2011-10-05T16:42:00Z</time>
      </trkpt>
      <trkpt lat="43.61708" lon="7.04119">
        <ele>137</ele>
        <time>2011-10-05T16:42:05Z</time>
      </trkpt>
      <trkpt lat="43.61705" lon="7.04138">
        <ele>137</ele>
        <time>2011-10-05T16:42:10Z</time>
      </trkpt>
      <trkpt lat="43.617" lon="7.04154">
        <ele>136</ele>
        <time>2011-10-05T16:42:15Z</time>
      </trkpt>
      <trkpt lat="43.61692" lon="7.04169">
        <ele>136</ele>
        <time>2011-10-05T16:42:20Z</time>
      </trkpt>
      <trkpt lat="43.61678" lon="7.04179">
        <ele>136</ele>
        <time>2011-10-05T16:42:25Z</time>
      </trkpt>
      <trkpt lat="43.6166" lon="7.04174">
        <ele>136</ele>
        <time>2011-10-05T16:42:30Z</time>
      </trkpt>
      <trkpt lat="43.61634" lon="7.04171">
        <ele>136</ele>
        <time>2011-10-05T16:42:35Z</time>
      </trkpt>
      <trkpt lat="43.6162" lon="7.0416">
        <ele>136</ele>
        <time>2011-10-05T16:42:40Z</time>
      </trkpt>
      <trkpt lat="43.61612" lon="7.04152">
        <ele>136</ele>
        <time>2011-10-05T16:42:45Z</time>
      </trkpt>
      <trkpt lat="43.61608" lon="7.04144">
        <ele>135</ele>
        <time>2011-10-05T16:42:50Z</time>
      </trkpt>
      <trkpt lat="43.61598" lon="7.04145">
        <ele>135</ele>
        <time>2011-10-05T16:42:55Z</time>
      </trkpt>
      <trkpt lat="43.61586" lon="7.04147">
        <ele>135</ele>
        <time>2011-10-05T16:43:00Z</time>
      </trkpt>
      <trkpt lat="43.61575" lon="7.04147">
        <ele>135</ele>
        <time>2011-10-05T16:43:05Z</time>
      </trkpt>
      <trkpt lat="43.61569" lon="7.04152">
        <ele>135</ele>
        <time>2011-10-05T16:43:16Z</time>
      </trkpt>
      <trkpt lat="43.61568" lon="7.04154">
        <ele>135</ele>
        <time>2011-10-05T16:43:29Z</time>
      </trkpt>
      <trkpt lat="43.61567" lon="7.04154">
        <ele>135</ele>
        <time>2011-10-05T16:44:13Z</time>
      </trkpt>
      <trkpt lat="43.6156" lon="7.04161">
        <ele>135</ele>
        <time>2011-10-05T16:44:18Z</time>
      </trkpt>
      <trkpt lat="43.61551" lon="7.04178">
        <ele>135</ele>
        <time>2011-10-05T16:44:23Z</time>
      </trkpt>
      <trkpt lat="43.61541" lon="7.04182">
        <ele>135</ele>
        <time>2011-10-05T16:44:28Z</time>
      </trkpt>
      <trkpt lat="43.61527" lon="7.04169">
        <ele>133</ele>
        <time>2011-10-05T16:44:34Z</time>
      </trkpt>
      <trkpt lat="43.61521" lon="7.04161">
        <ele>128</ele>
        <time>2011-10-05T16:44:39Z</time>
      </trkpt>
      <trkpt lat="43.61517" lon="7.04162">
        <ele>123</ele>
        <time>2011-10-05T16:44:46Z</time>
      </trkpt>
      <trkpt lat="43.61511" lon="7.04163">
        <ele>123</ele>
        <time>2011-10-05T16:44:52Z</time>
      </trkpt>
      <trkpt lat="43.61507" lon="7.04171">
        <ele>124</ele>
        <time>2011-10-05T16:44:57Z</time>
      </trkpt>
      <trkpt lat="43.61505" lon="7.04178">
        <ele>124</ele>
        <time>2011-10-05T16:45:05Z</time>
      </trkpt>
      <trkpt lat="43.61504" lon="7.04179">
        <ele>127</ele>
        <time>2011-10-05T16:45:14Z</time>
      </trkpt>
      <trkpt lat="43.61503" lon="7.04181">
        <ele>131</ele>
        <time>2011-10-05T16:45:33Z</time>
      </trkpt>
      <trkpt lat="43.61496" lon="7.04193">
        <ele>131</ele>
        <time>2011-10-05T16:45:38Z</time>
      </trkpt>
      <trkpt lat="43.61488" lon="7.04207">
        <ele>131</ele>
        <time>2011-10-05T16:45:43Z</time>
      </trkpt>
      <trkpt lat="43.61482" lon="7.04217">
        <ele>131</ele>
        <time>2011-10-05T16:45:48Z</time>
      </trkpt>
      <trkpt lat="43.61475" lon="7.04227">
        <ele>131</ele>
        <time>2011-10-05T16:45:53Z</time>
      </trkpt>
      <trkpt lat="43.61469" lon="7.04238">
        <ele>131</ele>
        <time>2011-10-05T16:45:58Z</time>
      </trkpt>
      <trkpt lat="43.61463" lon="7.04248">
        <ele>131</ele>
        <time>2011-10-05T16:46:03Z</time>
      </trkpt>
      <trkpt lat="43.61457" lon="7.04256">
        <ele>131</ele>
        <time>2011-10-05T16:46:08Z</time>
      </trkpt>
      <trkpt lat="43.61449" lon="7.04266">
        <ele>131</ele>
        <time>2011-10-05T16:46:14Z</time>
      </trkpt>
      <trkpt lat="43.61446" lon="7.04268">
        <ele>131</ele>
        <time>2011-10-05T16:46:21Z</time>
      </trkpt>
      <trkpt lat="43.61445" lon="7.0427">
        <ele>134</ele>
        <time>2011-10-05T16:46:30Z</time>
      </trkpt>
      <trkpt lat="43.6144" lon="7.04276">
        <ele>135</ele>
        <time>2011-10-05T16:46:36Z</time>
      </trkpt>
      <trkpt lat="43.61434" lon="7.0428">
        <ele>135</ele>
        <time>2011-10-05T16:46:41Z</time>
      </trkpt>
      <trkpt lat="43.61428" lon="7.04284">
        <ele>135</ele>
        <time>2011-10-05T16:46:46Z</time>
      </trkpt>
      <trkpt lat="43.61423" lon="7.04289">
        <ele>135</ele>
        <time>2011-10-05T16:46:52Z</time>
      </trkpt>
      <trkpt lat="43.61418" lon="7.04295">
        <ele>135</ele>
        <time>2011-10-05T16:46:57Z</time>
      </trkpt>
      <trkpt lat="43.6141" lon="7.04307">
        <ele>135</ele>
        <time>2011-10-05T16:47:02Z</time>
      </trkpt>
      <trkpt lat="43.61402" lon="7.04316">
        <ele>136</ele>
        <time>2011-10-05T16:47:07Z</time>
      </trkpt>
      <trkpt lat="43.61391" lon="7.04324">
        <ele>137</ele>
        <time>2011-10-05T16:47:12Z</time>
      </trkpt>
      <trkpt lat="43.61382" lon="7.04328">
        <ele>137</ele>
        <time>2011-10-05T16:47:17Z</time>
      </trkpt>
      <trkpt lat="43.61375" lon="7.0434">
        <ele>138</ele>
        <time>2011-10-05T16:47:22Z</time>
      </trkpt>
      <trkpt lat="43.6137" lon="7.04352">
        <ele>139</ele>
        <time>2011-10-05T16:47:27Z</time>
      </trkpt>
      <trkpt lat="43.61368" lon="7.0436">
        <ele>140</ele>
        <time>2011-10-05T16:47:32Z</time>
      </trkpt>
      <trkpt lat="43.61363" lon="7.04367">
        <ele>142</ele>
        <time>2011-10-05T16:47:37Z</time>
      </trkpt>
      <trkpt lat="43.61361" lon="7.0437">
        <ele>144</ele>
        <time>2011-10-05T16:47:44Z</time>
      </trkpt>
      <trkpt lat="43.61361" lon="7.04371">
        <ele>146</ele>
        <time>2011-10-05T16:47:54Z</time>
      </trkpt>
      <trkpt lat="43.61361" lon="7.04377">
        <ele>148</ele>
        <time>2011-10-05T16:47:59Z</time>
      </trkpt>
      <trkpt lat="43.61359" lon="7.04382">
        <ele>149</ele>
        <time>2011-10-05T16:48:05Z</time>
      </trkpt>
      <trkpt lat="43.61358" lon="7.04386">
        <ele>149</ele>
        <time>2011-10-05T16:48:14Z</time>
      </trkpt>
      <trkpt lat="43.61358" lon="7.04389">
        <ele>150</ele>
        <time>2011-10-05T16:48:19Z</time>
      </trkpt>
      <trkpt lat="43.61356" lon="7.04395">
        <ele>151</ele>
        <time>2011-10-05T16:48:24Z</time>
      </trkpt>
      <trkpt lat="43.61352" lon="7.04399">
        <ele>153</ele>
        <time>2011-10-05T16:48:29Z</time>
      </trkpt>
      <trkpt lat="43.61348" lon="7.04404">
        <ele>153</ele>
        <time>2011-10-05T16:48:35Z</time>
      </trkpt>
      <trkpt lat="43.61345" lon="7.04414">
        <ele>153</ele>
        <time>2011-10-05T16:48:41Z</time>
      </trkpt>
      <trkpt lat="43.61344" lon="7.04423">
        <ele>152</ele>
        <time>2011-10-05T16:48:46Z</time>
      </trkpt>
      <trkpt lat="43.61341" lon="7.04431">
        <ele>152</ele>
        <time>2011-10-05T16:48:52Z</time>
      </trkpt>
      <trkpt lat="43.61335" lon="7.0444">
        <ele>152</ele>
        <time>2011-10-05T16:48:57Z</time>
      </trkpt>
      <trkpt lat="43.61329" lon="7.04452">
        <ele>152</ele>
        <time>2011-10-05T16:49:02Z</time>
      </trkpt>
      <trkpt lat="43.61329" lon="7.04459">
        <ele>152</ele>
        <time>2011-10-05T16:49:07Z</time>
      </trkpt>
      <trkpt lat="43.61332" lon="7.04447">
        <ele>152</ele>
        <time>2011-10-05T16:49:12Z</time>
      </trkpt>
      <trkpt lat="43.61335" lon="7.04442">
        <ele>152</ele>
        <time>2011-10-05T16:49:18Z</time>
      </trkpt>
      <trkpt lat="43.61334" lon="7.04441">
        <ele>152</ele>
        <time>2011-10-05T16:49:23Z</time>
      </trkpt>
      <trkpt lat="43.6133" lon="7.04456">
        <ele>152</ele>
        <time>2011-10-05T16:49:28Z</time>
      </trkpt>
      <trkpt lat="43.61336" lon="7.04468">
        <ele>152</ele>
        <time>2011-10-05T16:49:33Z</time>
      </trkpt>
      <trkpt lat="43.61335" lon="7.04484">
        <ele>152</ele>
        <time>2011-10-05T16:49:38Z</time>
      </trkpt>
      <trkpt lat="43.6133" lon="7.04502">
        <ele>152</ele>
        <time>2011-10-05T16:49:43Z</time>
      </trkpt>
      <trkpt lat="43.61328" lon="7.04517">
        <ele>153</ele>
        <time>2011-10-05T16:49:48Z</time>
      </trkpt>
      <trkpt lat="43.61326" lon="7.04531">
        <ele>154</ele>
        <time>2011-10-05T16:49:53Z</time>
      </trkpt>
      <trkpt lat="43.61322" lon="7.04541">
        <ele>155</ele>
        <time>2011-10-05T16:49:58Z</time>
      </trkpt>
      <trkpt lat="43.6132" lon="7.04549">
        <ele>155</ele>
        <time>2011-10-05T16:50:03Z</time>
      </trkpt>
      <trkpt lat="43.61317" lon="7.04555">
        <ele>155</ele>
        <time>2011-10-05T16:50:09Z</time>
      </trkpt>
      <trkpt lat="43.61321" lon="7.04558">
        <ele>155</ele>
        <time>2011-10-05T16:50:14Z</time>
      </trkpt>
      <trkpt lat="43.61322" lon="7.0457">
        <ele>155</ele>
        <time>2011-10-05T16:50:20Z</time>
      </trkpt>
      <trkpt lat="43.6132" lon="7.04573">
        <ele>155</ele>
        <time>2011-10-05T16:50:25Z</time>
      </trkpt>
      <trkpt lat="43.61322" lon="7.04571">
        <ele>155</ele>
        <time>2011-10-05T16:50:38Z</time>
      </trkpt>
      <trkpt lat="43.61322" lon="7.0457">
        <ele>155</ele>
        <time>2011-10-05T16:50:44Z</time>
      </trkpt>
      <trkpt lat="43.61325" lon="7.04572">
        <ele>155</ele>
        <time>2011-10-05T16:50:49Z</time>
      </trkpt>
      <trkpt lat="43.61329" lon="7.04585">
        <ele>155</ele>
        <time>2011-10-05T16:50:54Z</time>
      </trkpt>
      <trkpt lat="43.6134" lon="7.04595">
        <ele>155</ele>
        <time>2011-10-05T16:50:59Z</time>
      </trkpt>
      <trkpt lat="43.61352" lon="7.04602">
        <ele>155</ele>
        <time>2011-10-05T16:51:04Z</time>
      </trkpt>
      <trkpt lat="43.61354" lon="7.04605">
        <ele>155</ele>
        <time>2011-10-05T16:51:18Z</time>
      </trkpt>
      <trkpt lat="43.61361" lon="7.04609">
        <ele>155</ele>
        <time>2011-10-05T16:51:23Z</time>
      </trkpt>
      <trkpt lat="43.61372" lon="7.04618">
        <ele>155</ele>
        <time>2011-10-05T16:51:28Z</time>
      </trkpt>
      <trkpt lat="43.61379" lon="7.04614">
        <ele>155</ele>
        <time>2011-10-05T16:51:33Z</time>
      </trkpt>
      <trkpt lat="43.61378" lon="7.04613">
        <ele>155</ele>
        <time>2011-10-05T16:51:38Z</time>
      </trkpt>
      <trkpt lat="43.61377" lon="7.04613">
        <ele>156</ele>
        <time>2011-10-05T16:51:50Z</time>
      </trkpt>
      <trkpt lat="43.6138" lon="7.04611">
        <ele>156</ele>
        <time>2011-10-05T16:52:02Z</time>
      </trkpt>
      <trkpt lat="43.61384" lon="7.04599">
        <ele>156</ele>
        <time>2011-10-05T16:52:07Z</time>
      </trkpt>
      <trkpt lat="43.61391" lon="7.04583">
        <ele>156</ele>
        <time>2011-10-05T16:52:12Z</time>
      </trkpt>
      <trkpt lat="43.61396" lon="7.04574">
        <ele>156</ele>
        <time>2011-10-05T16:52:17Z</time>
      </trkpt>
      <trkpt lat="43.61398" lon="7.04563">
        <ele>156</ele>
        <time>2011-10-05T16:52:22Z</time>
      </trkpt>
      <trkpt lat="43.61401" lon="7.04549">
        <ele>156</ele>
        <time>2011-10-05T16:52:27Z</time>
      </trkpt>
      <trkpt lat="43.61403" lon="7.04532">
        <ele>156</ele>
        <time>2011-10-05T16:52:32Z</time>
      </trkpt>
      <trkpt lat="43.61405" lon="7.04509">
        <ele>156</ele>
        <time>2011-10-05T16:52:37Z</time>
      </trkpt>
      <trkpt lat="43.61412" lon="7.0449">
        <ele>156</ele>
        <time>2011-10-05T16:52:42Z</time>
      </trkpt>
      <trkpt lat="43.61418" lon="7.04474">
        <ele>156</ele>
        <time>2011-10-05T16:52:47Z</time>
      </trkpt>
      <trkpt lat="43.61425" lon="7.04458">
        <ele>156</ele>
        <time>2011-10-05T16:52:52Z</time>
      </trkpt>
      <trkpt lat="43.61434" lon="7.04457">
        <ele>156</ele>
        <time>2011-10-05T16:52:57Z</time>
      </trkpt>
      <trkpt lat="43.61445" lon="7.04456">
        <ele>156</ele>
        <time>2011-10-05T16:53:02Z</time>
      </trkpt>
      <trkpt lat="43.61454" lon="7.0446">
        <ele>159</ele>
        <time>2011-10-05T16:53:07Z</time>
      </trkpt>
      <trkpt lat="43.6146" lon="7.04462">
        <ele>161</ele>
        <time>2011-10-05T16:53:12Z</time>
      </trkpt>
      <trkpt lat="43.6146" lon="7.0446">
        <ele>165</ele>
        <time>2011-10-05T16:53:22Z</time>
      </trkpt>
      <trkpt lat="43.61459" lon="7.0446">
        <ele>166</ele>
        <time>2011-10-05T16:53:32Z</time>
      </trkpt>
      <trkpt lat="43.61458" lon="7.0446">
        <ele>166</ele>
        <time>2011-10-05T16:53:42Z</time>
      </trkpt>
      <trkpt lat="43.61456" lon="7.04458">
        <ele>166</ele>
        <time>2011-10-05T16:53:48Z</time>
      </trkpt>
      <trkpt lat="43.61457" lon="7.04459">
        <ele>167</ele>
        <time>2011-10-05T16:53:54Z</time>
      </trkpt>
      <trkpt lat="43.61459" lon="7.04458">
        <ele>168</ele>
        <time>2011-10-05T16:54:00Z</time>
      </trkpt>
      <trkpt lat="43.61471" lon="7.04451">
        <ele>168</ele>
        <time>2011-10-05T16:54:05Z</time>
      </trkpt>
      <trkpt lat="43.61489" lon="7.04444">
        <ele>168</ele>
        <time>2011-10-05T16:54:10Z</time>
      </trkpt>
      <trkpt lat="43.61512" lon="7.04438">
        <ele>168</ele>
        <time>2011-10-05T16:54:15Z</time>
      </trkpt>
      <trkpt lat="43.61541" lon="7.0443">
        <ele>168</ele>
        <time>2011-10-05T16:54:20Z</time>
      </trkpt>
      <trkpt lat="43.61569" lon="7.04433">
        <ele>167</ele>
        <time>2011-10-05T16:54:25Z</time>
      </trkpt>
      <trkpt lat="43.61594" lon="7.0446">
        <ele>164</ele>
        <time>2011-10-05T16:54:30Z</time>
      </trkpt>
      <trkpt lat="43.61618" lon="7.04494">
        <ele>160</ele>
        <time>2011-10-05T16:54:35Z</time>
      </trkpt>
      <trkpt lat="43.61628" lon="7.04509">
        <ele>156</ele>
        <time>2011-10-05T16:54:42Z</time>
      </trkpt>
      <trkpt lat="43.61629" lon="7.04511">
        <ele>154</ele>
        <time>2011-10-05T16:54:47Z</time>
      </trkpt>
      <trkpt lat="43.61631" lon="7.04512">
        <ele>155</ele>
        <time>2011-10-05T16:54:54Z</time>
      </trkpt>
      <trkpt lat="43.61632" lon="7.04513">
        <ele>161</ele>
        <time>2011-10-05T16:55:08Z</time>
      </trkpt>
      <trkpt lat="43.61631" lon="7.04512">
        <ele>161</ele>
        <time>2011-10-05T16:55:13Z</time>
      </trkpt>
      <trkpt lat="43.6163" lon="7.04512">
        <ele>161</ele>
        <time>2011-10-05T16:55:19Z</time>
      </trkpt>
      <trkpt lat="43.61631" lon="7.04513">
        <ele>161</ele>
        <time>2011-10-05T16:55:27Z</time>
      </trkpt>
      <trkpt lat="43.61629" lon="7.04514">
        <ele>160</ele>
        <time>2011-10-05T16:55:34Z</time>
      </trkpt>
      <trkpt lat="43.61626" lon="7.04518">
        <ele>155</ele>
        <time>2011-10-05T16:55:40Z</time>
      </trkpt>
      <trkpt lat="43.61626" lon="7.04519">
        <ele>154</ele>
        <time>2011-10-05T16:55:48Z</time>
      </trkpt>
      <trkpt lat="43.61626" lon="7.04521">
        <ele>154</ele>
        <time>2011-10-05T16:55:55Z</time>
      </trkpt>
      <trkpt lat="43.61626" lon="7.0452">
        <ele>154</ele>
        <time>2011-10-05T16:56:11Z</time>
      </trkpt>
      <trkpt lat="43.61627" lon="7.04517">
        <ele>154</ele>
        <time>2011-10-05T16:56:27Z</time>
      </trkpt>
      <trkpt lat="43.61627" lon="7.04515">
        <ele>154</ele>
        <time>2011-10-05T16:56:58Z</time>
      </trkpt>
      <trkpt lat="43.61626" lon="7.04514">
        <ele>154</ele>
        <time>2011-10-05T16:57:36Z</time>
      </trkpt>
      <trkpt lat="43.61626" lon="7.04513">
        <ele>154</ele>
        <time>2011-10-05T16:57:50Z</time>
      </trkpt>
      <trkpt lat="43.61625" lon="7.04514">
        <ele>154</ele>
        <time>2011-10-05T16:57:58Z</time>
      </trkpt>
      <trkpt lat="43.61627" lon="7.04517">
        <ele>154</ele>
        <time>2011-10-05T16:58:06Z</time>
      </trkpt>
      <trkpt lat="43.61628" lon="7.04517">
        <ele>157</ele>
        <time>2011-10-05T16:58:19Z</time>
      </trkpt>
      <trkpt lat="43.61628" lon="7.04516">
        <ele>158</ele>
        <time>2011-10-05T16:58:37Z</time>
      </trkpt>
      <trkpt lat="43.61627" lon="7.04515">
        <ele>158</ele>
        <time>2011-10-05T16:59:05Z</time>
      </trkpt>
      <trkpt lat="43.61627" lon="7.04513">
        <ele>158</ele>
        <time>2011-10-05T16:59:24Z</time>
      </trkpt>
      <trkpt lat="43.61627" lon="7.04515">
        <ele>157</ele>
        <time>2011-10-05T16:59:49Z</time>
      </trkpt>
      <trkpt lat="43.61628" lon="7.04514">
        <ele>157</ele>
        <time>2011-10-05T17:00:05Z</time>
      </trkpt>
      <trkpt lat="43.61628" lon="7.04515">
        <ele>157</ele>
        <time>2011-10-05T17:00:16Z</time>
      </trkpt>
      <trkpt lat="43.61627" lon="7.04516">
        <ele>157</ele>
        <time>2011-10-05T17:00:52Z</time>
      </trkpt>
      <trkpt lat="43.61626" lon="7.04514">
        <ele>157</ele>
        <time>2011-10-05T17:01:12Z</time>
      </trkpt>
      <trkpt lat="43.61626" lon="7.04513">
        <ele>157</ele>
        <time>2011-10-05T17:01:19Z</time>
      </trkpt>
      <trkpt lat="43.61625" lon="7.04513">
        <ele>157</ele>
        <time>2011-10-05T17:01:36Z</time>
      </trkpt>
      <trkpt lat="43.61626" lon="7.04513">
        <ele>157</ele>
        <time>2011-10-05T17:01:48Z</time>
      </trkpt>
      <trkpt lat="43.61627" lon="7.04512">
        <ele>157</ele>
        <time>2011-10-05T17:01:54Z</time>
      </trkpt>
      <trkpt lat="43.61629" lon="7.04513">
        <ele>157</ele>
        <time>2011-10-05T17:02:03Z</time>
      </trkpt>
      <trkpt lat="43.61634" lon="7.04522">
        <ele>157</ele>
        <time>2011-10-05T17:02:08Z</time>
      </trkpt>
      <trkpt lat="43.6165" lon="7.0455">
        <ele>157</ele>
        <time>2011-10-05T17:02:14Z</time>
      </trkpt>
      <trkpt lat="43.61665" lon="7.04584">
        <ele>157</ele>
        <time>2011-10-05T17:02:19Z</time>
      </trkpt>
      <trkpt lat="43.61684" lon="7.0462">
        <ele>154</ele>
        <time>2011-10-05T17:02:25Z</time>
      </trkpt>
      <trkpt lat="43.61695" lon="7.04649">
        <ele>150</ele>
        <time>2011-10-05T17:02:30Z</time>
      </trkpt>
      <trkpt lat="43.61705" lon="7.04682">
        <ele>147</ele>
        <time>2011-10-05T17:02:35Z</time>
      </trkpt>
      <trkpt lat="43.61712" lon="7.04717">
        <ele>143</ele>
        <time>2011-10-05T17:02:41Z</time>
      </trkpt>
      <trkpt lat="43.6172" lon="7.04738">
        <ele>142</ele>
        <time>2011-10-05T17:02:46Z</time>
      </trkpt>
      <trkpt lat="43.61731" lon="7.04764">
        <ele>141</ele>
        <time>2011-10-05T17:02:51Z</time>
      </trkpt>
      <trkpt lat="43.61738" lon="7.04793">
        <ele>139</ele>
        <time>2011-10-05T17:02:56Z</time>
      </trkpt>
      <trkpt lat="43.61736" lon="7.04811">
        <ele>137</ele>
        <time>2011-10-05T17:03:02Z</time>
      </trkpt>
      <trkpt lat="43.61734" lon="7.04814">
        <ele>137</ele>
        <time>2011-10-05T17:03:20Z</time>
      </trkpt>
      <trkpt lat="43.61734" lon="7.04816">
        <ele>137</ele>
        <time>2011-10-05T17:03:25Z</time>
      </trkpt>
      <trkpt lat="43.61734" lon="7.04818">
        <ele>142</ele>
        <time>2011-10-05T17:03:37Z</time>
      </trkpt>
      <trkpt lat="43.61731" lon="7.04816">
        <ele>144</ele>
        <time>2011-10-05T17:03:43Z</time>
      </trkpt>
      <trkpt lat="43.61731" lon="7.04819">
        <ele>144</ele>
        <time>2011-10-05T17:03:51Z</time>
      </trkpt>
      <trkpt lat="43.61732" lon="7.04825">
        <ele>144</ele>
        <time>2011-10-05T17:03:58Z</time>
      </trkpt>
      <trkpt lat="43.61735" lon="7.04828">
        <ele>144</ele>
        <time>2011-10-05T17:04:03Z</time>
      </trkpt>
      <trkpt lat="43.61737" lon="7.04832">
        <ele>144</ele>
        <time>2011-10-05T17:04:08Z</time>
      </trkpt>
      <trkpt lat="43.6175" lon="7.04838">
        <ele>144</ele>
        <time>2011-10-05T17:04:13Z</time>
      </trkpt>
      <trkpt lat="43.61766" lon="7.04847">
        <ele>144</ele>
        <time>2011-10-05T17:04:18Z</time>
      </trkpt>
      <trkpt lat="43.61771" lon="7.04858">
        <ele>144</ele>
        <time>2011-10-05T17:04:23Z</time>
      </trkpt>
      <trkpt lat="43.61771" lon="7.04862">
        <ele>144</ele>
        <time>2011-10-05T17:04:28Z</time>
      </trkpt>
      <trkpt lat="43.6177" lon="7.04861">
        <ele>144</ele>
        <time>2011-10-05T17:04:40Z</time>
      </trkpt>
      <trkpt lat="43.61773" lon="7.04853">
        <ele>142</ele>
        <time>2011-10-05T17:04:45Z</time>
      </trkpt>
      <trkpt lat="43.61776" lon="7.04857">
        <ele>139</ele>
        <time>2011-10-05T17:04:50Z</time>
      </trkpt>
      <trkpt lat="43.61778" lon="7.04866">
        <ele>136</ele>
        <time>2011-10-05T17:04:55Z</time>
      </trkpt>
      <trkpt lat="43.61779" lon="7.04862">
        <ele>135</ele>
        <time>2011-10-05T17:05:03Z</time>
      </trkpt>
      <trkpt lat="43.61783" lon="7.04858">
        <ele>134</ele>
        <time>2011-10-05T17:05:09Z</time>
      </trkpt>
      <trkpt lat="43.61783" lon="7.0486">
        <ele>134</ele>
        <time>2011-10-05T17:05:14Z</time>
      </trkpt>
      <trkpt lat="43.61784" lon="7.04857">
        <ele>132</ele>
        <time>2011-10-05T17:05:20Z</time>
      </trkpt>
      <trkpt lat="43.61787" lon="7.04855">
        <ele>132</ele>
        <time>2011-10-05T17:05:25Z</time>
      </trkpt>
      <trkpt lat="43.61789" lon="7.04855">
        <ele>130</ele>
        <time>2011-10-05T17:05:30Z</time>
      </trkpt>
      <trkpt lat="43.61794" lon="7.04845">
        <ele>128</ele>
        <time>2011-10-05T17:05:35Z</time>
      </trkpt>
      <trkpt lat="43.61798" lon="7.04836">
        <ele>127</ele>
        <time>2011-10-05T17:05:40Z</time>
      </trkpt>
      <trkpt lat="43.61803" lon="7.04829">
        <ele>127</ele>
        <time>2011-10-05T17:05:46Z</time>
      </trkpt>
      <trkpt lat="43.61806" lon="7.04825">
        <ele>127</ele>
        <time>2011-10-05T17:05:54Z</time>
      </trkpt>
      <trkpt lat="43.61808" lon="7.04829">
        <ele>127</ele>
        <time>2011-10-05T17:05:59Z</time>
      </trkpt>
      <trkpt lat="43.61809" lon="7.04843">
        <ele>126</ele>
        <time>2011-10-05T17:06:04Z</time>
      </trkpt>
      <trkpt lat="43.61812" lon="7.0486">
        <ele>123</ele>
        <time>2011-10-05T17:06:09Z</time>
      </trkpt>
      <trkpt lat="43.61815" lon="7.04878">
        <ele>120</ele>
        <time>2011-10-05T17:06:14Z</time>
      </trkpt>
      <trkpt lat="43.61818" lon="7.04896">
        <ele>117</ele>
        <time>2011-10-05T17:06:20Z</time>
      </trkpt>
      <trkpt lat="43.61822" lon="7.04909">
        <ele>116</ele>
        <time>2011-10-05T17:06:25Z</time>
      </trkpt>
      <trkpt lat="43.61826" lon="7.04919">
        <ele>115</ele>
        <time>2011-10-05T17:06:30Z</time>
      </trkpt>
      <trkpt lat="43.61834" lon="7.0493">
        <ele>115</ele>
        <time>2011-10-05T17:06:35Z</time>
      </trkpt>
      <trkpt lat="43.61845" lon="7.04941">
        <ele>115</ele>
        <time>2011-10-05T17:06:40Z</time>
      </trkpt>
      <trkpt lat="43.6186" lon="7.0495">
        <ele>115</ele>
        <time>2011-10-05T17:06:45Z</time>
      </trkpt>
      <trkpt lat="43.61873" lon="7.04953">
        <ele>115</ele>
        <time>2011-10-05T17:06:50Z</time>
      </trkpt>
      <trkpt lat="43.61888" lon="7.04953">
        <ele>115</ele>
        <time>2011-10-05T17:06:55Z</time>
      </trkpt>
      <trkpt lat="43.61916" lon="7.04957">
        <ele>115</ele>
        <time>2011-10-05T17:07:00Z</time>
      </trkpt>
      <trkpt lat="43.61956" lon="7.04962">
        <ele>116</ele>
        <time>2011-10-05T17:07:05Z</time>
      </trkpt>
      <trkpt lat="43.61974" lon="7.04959">
        <ele>119</ele>
        <time>2011-10-05T17:07:10Z</time>
      </trkpt>
      <trkpt lat="43.61997" lon="7.04964">
        <ele>121</ele>
        <time>2011-10-05T17:07:15Z</time>
      </trkpt>
      <trkpt lat="43.62009" lon="7.04972">
        <ele>123</ele>
        <time>2011-10-05T17:07:20Z</time>
      </trkpt>
      <trkpt lat="43.62023" lon="7.04979">
        <ele>123</ele>
        <time>2011-10-05T17:07:25Z</time>
      </trkpt>
      <trkpt lat="43.6203" lon="7.04993">
        <ele>123</ele>
        <time>2011-10-05T17:07:30Z</time>
      </trkpt>
      <trkpt lat="43.62041" lon="7.05002">
        <ele>123</ele>
        <time>2011-10-05T17:07:35Z</time>
      </trkpt>
      <trkpt lat="43.6205" lon="7.05015">
        <ele>122</ele>
        <time>2011-10-05T17:07:40Z</time>
      </trkpt>
      <trkpt lat="43.62054" lon="7.05025">
        <ele>120</ele>
        <time>2011-10-05T17:07:45Z</time>
      </trkpt>
      <trkpt lat="43.62054" lon="7.05032">
        <ele>118</ele>
        <time>2011-10-05T17:07:50Z</time>
      </trkpt>
      <trkpt lat="43.62055" lon="7.05042">
        <ele>117</ele>
        <time>2011-10-05T17:07:56Z</time>
      </trkpt>
      <trkpt lat="43.62055" lon="7.05051">
        <ele>117</ele>
        <time>2011-10-05T17:08:02Z</time>
      </trkpt>
      <trkpt lat="43.62058" lon="7.05052">
        <ele>116</ele>
        <time>2011-10-05T17:08:08Z</time>
      </trkpt>
      <trkpt lat="43.62057" lon="7.05051">
        <ele>116</ele>
        <time>2011-10-05T17:08:13Z</time>
      </trkpt>
      <trkpt lat="43.62057" lon="7.05072">
        <ele>115</ele>
        <time>2011-10-05T17:08:18Z</time>
      </trkpt>
      <trkpt lat="43.62051" lon="7.05103">
        <ele>115</ele>
        <time>2011-10-05T17:08:23Z</time>
      </trkpt>
      <trkpt lat="43.62047" lon="7.05133">
        <ele>114</ele>
        <time>2011-10-05T17:08:28Z</time>
      </trkpt>
      <trkpt lat="43.62045" lon="7.05155">
        <ele>114</ele>
        <time>2011-10-05T17:08:33Z</time>
      </trkpt>
      <trkpt lat="43.62046" lon="7.05175">
        <ele>114</ele>
        <time>2011-10-05T17:08:38Z</time>
      </trkpt>
      <trkpt lat="43.62043" lon="7.05189">
        <ele>114</ele>
        <time>2011-10-05T17:08:43Z</time>
      </trkpt>
      <trkpt lat="43.62042" lon="7.05209">
        <ele>114</ele>
        <time>2011-10-05T17:08:48Z</time>
      </trkpt>
      <trkpt lat="43.6204" lon="7.05231">
        <ele>114</ele>
        <time>2011-10-05T17:08:53Z</time>
      </trkpt>
      <trkpt lat="43.62037" lon="7.05251">
        <ele>114</ele>
        <time>2011-10-05T17:08:58Z</time>
      </trkpt>
      <trkpt lat="43.62035" lon="7.05269">
        <ele>114</ele>
        <time>2011-10-05T17:09:03Z</time>
      </trkpt>
      <trkpt lat="43.62035" lon="7.05285">
        <ele>114</ele>
        <time>2011-10-05T17:09:08Z</time>
      </trkpt>
      <trkpt lat="43.62036" lon="7.053">
        <ele>114</ele>
        <time>2011-10-05T17:09:13Z</time>
      </trkpt>
      <trkpt lat="43.62037" lon="7.05317">
        <ele>114</ele>
        <time>2011-10-05T17:09:18Z</time>
      </trkpt>
      <trkpt lat="43.62039" lon="7.05336">
        <ele>114</ele>
        <time>2011-10-05T17:09:23Z</time>
      </trkpt>
      <trkpt lat="43.62041" lon="7.05355">
        <ele>113</ele>
        <time>2011-10-05T17:09:28Z</time>
      </trkpt>
      <trkpt lat="43.62043" lon="7.05372">
        <ele>113</ele>
        <time>2011-10-05T17:09:33Z</time>
      </trkpt>
      <trkpt lat="43.62046" lon="7.05386">
        <ele>112</ele>
        <time>2011-10-05T17:09:38Z</time>
      </trkpt>
      <trkpt lat="43.62049" lon="7.05397">
        <ele>110</ele>
        <time>2011-10-05T17:09:43Z</time>
      </trkpt>
      <trkpt lat="43.62057" lon="7.05411">
        <ele>108</ele>
        <time>2011-10-05T17:09:48Z</time>
      </trkpt>
      <trkpt lat="43.62061" lon="7.0543">
        <ele>107</ele>
        <time>2011-10-05T17:09:53Z</time>
      </trkpt>
      <trkpt lat="43.62074" lon="7.05433">
        <ele>106</ele>
        <time>2011-10-05T17:09:58Z</time>
      </trkpt>
      <trkpt lat="43.62086" lon="7.05428">
        <ele>106</ele>
        <time>2011-10-05T17:10:03Z</time>
      </trkpt>
      <trkpt lat="43.62097" lon="7.0543">
        <ele>106</ele>
        <time>2011-10-05T17:10:08Z</time>
      </trkpt>
      <trkpt lat="43.6211" lon="7.05433">
        <ele>106</ele>
        <time>2011-10-05T17:10:13Z</time>
      </trkpt>
      <trkpt lat="43.62123" lon="7.05441">
        <ele>108</ele>
        <time>2011-10-05T17:10:18Z</time>
      </trkpt>
      <trkpt lat="43.62134" lon="7.05468">
        <ele>109</ele>
        <time>2011-10-05T17:10:23Z</time>
      </trkpt>
      <trkpt lat="43.62145" lon="7.05509">
        <ele>110</ele>
        <time>2011-10-05T17:10:28Z</time>
      </trkpt>
      <trkpt lat="43.62168" lon="7.05538">
        <ele>110</ele>
        <time>2011-10-05T17:10:33Z</time>
      </trkpt>
      <trkpt lat="43.62194" lon="7.05558">
        <ele>111</ele>
        <time>2011-10-05T17:10:38Z</time>
      </trkpt>
      <trkpt lat="43.62213" lon="7.0557">
        <ele>112</ele>
        <time>2011-10-05T17:10:43Z</time>
      </trkpt>
      <trkpt lat="43.62233" lon="7.05554">
        <ele>112</ele>
        <time>2011-10-05T17:10:48Z</time>
      </trkpt>
      <trkpt lat="43.62237" lon="7.05553">
        <ele>112</ele>
        <time>2011-10-05T17:10:55Z</time>
      </trkpt>
      <trkpt lat="43.62239" lon="7.05558">
        <ele>112</ele>
        <time>2011-10-05T17:11:03Z</time>
      </trkpt>
      <trkpt lat="43.6224" lon="7.05559">
        <ele>112</ele>
        <time>2011-10-05T17:11:11Z</time>
      </trkpt>
      <trkpt lat="43.62241" lon="7.05559">
        <ele>114</ele>
        <time>2011-10-05T17:11:19Z</time>
      </trkpt>
      <trkpt lat="43.6224" lon="7.0556">
        <ele>115</ele>
        <time>2011-10-05T17:11:31Z</time>
      </trkpt>
      <trkpt lat="43.6224" lon="7.05562">
        <ele>115</ele>
        <time>2011-10-05T17:11:42Z</time>
      </trkpt>
      <trkpt lat="43.62243" lon="7.05582">
        <ele>115</ele>
        <time>2011-10-05T17:11:47Z</time>
      </trkpt>
      <trkpt lat="43.62253" lon="7.05587">
        <ele>115</ele>
        <time>2011-10-05T17:11:52Z</time>
      </trkpt>
      <trkpt lat="43.62262" lon="7.0558">
        <ele>115</ele>
        <time>2011-10-05T17:11:57Z</time>
      </trkpt>
      <trkpt lat="43.62267" lon="7.05572">
        <ele>115</ele>
        <time>2011-10-05T17:12:02Z</time>
      </trkpt>
      <trkpt lat="43.62275" lon="7.05562">
        <ele>115</ele>
        <time>2011-10-05T17:12:07Z</time>
      </trkpt>
      <trkpt lat="43.6228" lon="7.05553">
        <ele>115</ele>
        <time>2011-10-05T17:12:12Z</time>
      </trkpt>
      <trkpt lat="43.62288" lon="7.05548">
        <ele>115</ele>
        <time>2011-10-05T17:12:17Z</time>
      </trkpt>
      <trkpt lat="43.62293" lon="7.05543">
        <ele>115</ele>
        <time>2011-10-05T17:12:22Z</time>
      </trkpt>
      <trkpt lat="43.62299" lon="7.05539">
        <ele>115</ele>
        <time>2011-10-05T17:12:27Z</time>
      </trkpt>
      <trkpt lat="43.62306" lon="7.05536">
        <ele>116</ele>
        <time>2011-10-05T17:12:32Z</time>
      </trkpt>
      <trkpt lat="43.62312" lon="7.05532">
        <ele>117</ele>
        <time>2011-10-05T17:12:37Z</time>
      </trkpt>
      <trkpt lat="43.6232" lon="7.05532">
        <ele>117</ele>
        <time>2011-10-05T17:12:42Z</time>
      </trkpt>
      <trkpt lat="43.62327" lon="7.05533">
        <ele>118</ele>
        <time>2011-10-05T17:12:47Z</time>
      </trkpt>
      <trkpt lat="43.62331" lon="7.05536">
        <ele>118</ele>
        <time>2011-10-05T17:12:52Z</time>
      </trkpt>
      <trkpt lat="43.62334" lon="7.05531">
        <ele>118</ele>
        <time>2011-10-05T17:12:57Z</time>
      </trkpt>
      <trkpt lat="43.62339" lon="7.05528">
        <ele>118</ele>
        <time>2011-10-05T17:13:02Z</time>
      </trkpt>
      <trkpt lat="43.62346" lon="7.05522">
        <ele>118</ele>
        <time>2011-10-05T17:13:07Z</time>
      </trkpt>
      <trkpt lat="43.62356" lon="7.0552">
        <ele>118</ele>
        <time>2011-10-05T17:13:12Z</time>
      </trkpt>
      <trkpt lat="43.62364" lon="7.05523">
        <ele>118</ele>
        <time>2011-10-05T17:13:17Z</time>
      </trkpt>
      <trkpt lat="43.62368" lon="7.05523">
        <ele>118</ele>
        <time>2011-10-05T17:13:23Z</time>
      </trkpt>
      <trkpt lat="43.62372" lon="7.05522">
        <ele>118</ele>
        <time>2011-10-05T17:13:28Z</time>
      </trkpt>
      <trkpt lat="43.62379" lon="7.05518">
        <ele>118</ele>
        <time>2011-10-05T17:13:33Z</time>
      </trkpt>
      <trkpt lat="43.62389" lon="7.0552">
        <ele>118</ele>
        <time>2011-10-05T17:13:39Z</time>
      </trkpt>
      <trkpt lat="43.62394" lon="7.05526">
        <ele>119</ele>
        <time>2011-10-05T17:13:44Z</time>
      </trkpt>
      <trkpt lat="43.62401" lon="7.05533">
        <ele>120</ele>
        <time>2011-10-05T17:13:49Z</time>
      </trkpt>
      <trkpt lat="43.62408" lon="7.05541">
        <ele>122</ele>
        <time>2011-10-05T17:13:54Z</time>
      </trkpt>
      <trkpt lat="43.62415" lon="7.05549">
        <ele>122</ele>
        <time>2011-10-05T17:13:59Z</time>
      </trkpt>
      <trkpt lat="43.62424" lon="7.05559">
        <ele>122</ele>
        <time>2011-10-05T17:14:04Z</time>
      </trkpt>
      <trkpt lat="43.62436" lon="7.05571">
        <ele>122</ele>
        <time>2011-10-05T17:14:09Z</time>
      </trkpt>
      <trkpt lat="43.62446" lon="7.05581">
        <ele>122</ele>
        <time>2011-10-05T17:14:14Z</time>
      </trkpt>
      <trkpt lat="43.62444" lon="7.05594">
        <ele>122</ele>
        <time>2011-10-05T17:14:19Z</time>
      </trkpt>
      <trkpt lat="43.62433" lon="7.05602">
        <ele>122</ele>
        <time>2011-10-05T17:14:24Z</time>
      </trkpt>
      <trkpt lat="43.6243" lon="7.05617">
        <ele>122</ele>
        <time>2011-10-05T17:14:29Z</time>
      </trkpt>
      <trkpt lat="43.62431" lon="7.05629">
        <ele>122</ele>
        <time>2011-10-05T17:14:34Z</time>
      </trkpt>
      <trkpt lat="43.62435" lon="7.05635">
        <ele>123</ele>
        <time>2011-10-05T17:14:41Z</time>
      </trkpt>
      <trkpt lat="43.62433" lon="7.05642">
        <ele>125</ele>
        <time>2011-10-05T17:14:46Z</time>
      </trkpt>
      <trkpt lat="43.62434" lon="7.05652">
        <ele>126</ele>
        <time>2011-10-05T17:14:51Z</time>
      </trkpt>
      <trkpt lat="43.62433" lon="7.05663">
        <ele>127</ele>
        <time>2011-10-05T17:14:56Z</time>
      </trkpt>
      <trkpt lat="43.62435" lon="7.05678">
        <ele>128</ele>
        <time>2011-10-05T17:15:01Z</time>
      </trkpt>
      <trkpt lat="43.62437" lon="7.05688">
        <ele>130</ele>
        <time>2011-10-05T17:15:06Z</time>
      </trkpt>
      <trkpt lat="43.6244" lon="7.05699">
        <ele>131</ele>
        <time>2011-10-05T17:15:11Z</time>
      </trkpt>
      <trkpt lat="43.62445" lon="7.0571">
        <ele>131</ele>
        <time>2011-10-05T17:15:16Z</time>
      </trkpt>
      <trkpt lat="43.62448" lon="7.05723">
        <ele>131</ele>
        <time>2011-10-05T17:15:21Z</time>
      </trkpt>
      <trkpt lat="43.62453" lon="7.05727">
        <ele>131</ele>
        <time>2011-10-05T17:15:26Z</time>
      </trkpt>
      <trkpt lat="43.62458" lon="7.0573">
        <ele>131</ele>
        <time>2011-10-05T17:15:31Z</time>
      </trkpt>
      <trkpt lat="43.62464" lon="7.05733">
        <ele>131</ele>
        <time>2011-10-05T17:15:36Z</time>
      </trkpt>
      <trkpt lat="43.62469" lon="7.05739">
        <ele>131</ele>
        <time>2011-10-05T17:15:41Z</time>
      </trkpt>
      <trkpt lat="43.62471" lon="7.0575">
        <ele>131</ele>
        <time>2011-10-05T17:15:46Z</time>
      </trkpt>
      <trkpt lat="43.62471" lon="7.05769">
        <ele>132</ele>
        <time>2011-10-05T17:15:51Z</time>
      </trkpt>
      <trkpt lat="43.62467" lon="7.05787">
        <ele>134</ele>
        <time>2011-10-05T17:15:56Z</time>
      </trkpt>
      <trkpt lat="43.6246" lon="7.05802">
        <ele>137</ele>
        <time>2011-10-05T17:16:01Z</time>
      </trkpt>
      <trkpt lat="43.62451" lon="7.05815">
        <ele>140</ele>
        <time>2011-10-05T17:16:06Z</time>
      </trkpt>
      <trkpt lat="43.6244" lon="7.05826">
        <ele>141</ele>
        <time>2011-10-05T17:16:11Z</time>
      </trkpt>
      <trkpt lat="43.6243" lon="7.05837">
        <ele>143</ele>
        <time>2011-10-05T17:16:16Z</time>
      </trkpt>
      <trkpt lat="43.62422" lon="7.05848">
        <ele>145</ele>
        <time>2011-10-05T17:16:21Z</time>
      </trkpt>
      <trkpt lat="43.62413" lon="7.05863">
        <ele>145</ele>
        <time>2011-10-05T17:16:26Z</time>
      </trkpt>
      <trkpt lat="43.62407" lon="7.05879">
        <ele>147</ele>
        <time>2011-10-05T17:16:31Z</time>
      </trkpt>
      <trkpt lat="43.62406" lon="7.05899">
        <ele>148</ele>
        <time>2011-10-05T17:16:36Z</time>
      </trkpt>
      <trkpt lat="43.62407" lon="7.05927">
        <ele>148</ele>
        <time>2011-10-05T17:16:41Z</time>
      </trkpt>
      <trkpt lat="43.62405" lon="7.0595">
        <ele>148</ele>
        <time>2011-10-05T17:16:46Z</time>
      </trkpt>
      <trkpt lat="43.62408" lon="7.05968">
        <ele>148</ele>
        <time>2011-10-05T17:16:51Z</time>
      </trkpt>
      <trkpt lat="43.62418" lon="7.05975">
        <ele>148</ele>
        <time>2011-10-05T17:16:56Z</time>
      </trkpt>
      <trkpt lat="43.62417" lon="7.05983">
        <ele>148</ele>
        <time>2011-10-05T17:17:01Z</time>
      </trkpt>
      <trkpt lat="43.62416" lon="7.05983">
        <ele>148</ele>
        <time>2011-10-05T17:17:07Z</time>
      </trkpt>
      <trkpt lat="43.62415" lon="7.05985">
        <ele>148</ele>
        <time>2011-10-05T17:17:12Z</time>
      </trkpt>
      <trkpt lat="43.62415" lon="7.05985">
        <ele>148</ele>
        <time>2011-10-05T17:17:21Z</time>
      </trkpt>
      <trkpt lat="43.62414" lon="7.05984">
        <ele>148</ele>
        <time>2011-10-05T17:17:30Z</time>
      </trkpt>
    </trkseg>
  </trk>
</gpx>